<?xml version="1.0" encoding="UTF-8" standalone="no" ?>
<gpx xmlns="http://www.topografix.com/GPX/1/1" xmlns:xsi="http://www.w3.org/2001/XMLSchema-instance" xsi:schemaLocation="http://www.topografix.com/GPX/1/1 http://www.topografix.com/GPX/1/1/gpx.xsd" version="1.1" creator="VisuGPX - https://www.visugpx.com">
  <metadata>
    <name>Circuit du 25-05-2012</name>
    <desc><![CDATA[Circuit du 25-05-2012]]></desc>
  </metadata>
  <wpt lat="45.38371" lon="3.75152">
    <ele>663.70001220703</ele>
    <name><![CDATA[Start]]></name>
  </wpt>
  <wpt lat="45.38387" lon="3.75167">
    <ele>659.5</ele>
    <name><![CDATA[End]]></name>
  </wpt>
  <trk>
    <name><![CDATA[Circuit du 25-05-2012_1]]></name>
    <trkseg>
      <trkpt lat="45.38371" lon="3.75152">
        <ele>663.70001220703</ele>
        <time>2012-05-25T16:39:40Z</time>
      </trkpt>
      <trkpt lat="45.38371" lon="3.75145">
        <ele>663.70001220703</ele>
        <time>2012-05-25T16:39:43Z</time>
      </trkpt>
      <trkpt lat="45.38374" lon="3.75139">
        <ele>663.79998779297</ele>
        <time>2012-05-25T16:39:46Z</time>
      </trkpt>
      <trkpt lat="45.38378" lon="3.75139">
        <ele>663.70001220703</ele>
        <time>2012-05-25T16:39:48Z</time>
      </trkpt>
      <trkpt lat="45.38381" lon="3.75148">
        <ele>662.70001220703</ele>
        <time>2012-05-25T16:39:51Z</time>
      </trkpt>
      <trkpt lat="45.38384" lon="3.75156">
        <ele>662.90002441406</ele>
        <time>2012-05-25T16:39:53Z</time>
      </trkpt>
      <trkpt lat="45.38386" lon="3.75162">
        <ele>662.5</ele>
        <time>2012-05-25T16:39:55Z</time>
      </trkpt>
      <trkpt lat="45.38388" lon="3.75168">
        <ele>662.09997558594</ele>
        <time>2012-05-25T16:39:57Z</time>
      </trkpt>
      <trkpt lat="45.38389" lon="3.75175">
        <ele>661.5</ele>
        <time>2012-05-25T16:39:59Z</time>
      </trkpt>
      <trkpt lat="45.38391" lon="3.75181">
        <ele>661.29998779297</ele>
        <time>2012-05-25T16:40:01Z</time>
      </trkpt>
      <trkpt lat="45.38394" lon="3.75187">
        <ele>659.90002441406</ele>
        <time>2012-05-25T16:40:03Z</time>
      </trkpt>
      <trkpt lat="45.38396" lon="3.75192">
        <ele>660.09997558594</ele>
        <time>2012-05-25T16:40:05Z</time>
      </trkpt>
      <trkpt lat="45.38399" lon="3.75201">
        <ele>660.59997558594</ele>
        <time>2012-05-25T16:40:08Z</time>
      </trkpt>
      <trkpt lat="45.38401" lon="3.75207">
        <ele>660.40002441406</ele>
        <time>2012-05-25T16:40:10Z</time>
      </trkpt>
      <trkpt lat="45.38404" lon="3.75215">
        <ele>659.29998779297</ele>
        <time>2012-05-25T16:40:13Z</time>
      </trkpt>
      <trkpt lat="45.38406" lon="3.75224">
        <ele>659.29998779297</ele>
        <time>2012-05-25T16:40:16Z</time>
      </trkpt>
      <trkpt lat="45.38409" lon="3.75231">
        <ele>660</ele>
        <time>2012-05-25T16:40:19Z</time>
      </trkpt>
      <trkpt lat="45.38411" lon="3.75239">
        <ele>659.5</ele>
        <time>2012-05-25T16:40:22Z</time>
      </trkpt>
      <trkpt lat="45.38412" lon="3.75248">
        <ele>659.90002441406</ele>
        <time>2012-05-25T16:40:25Z</time>
      </trkpt>
      <trkpt lat="45.38414" lon="3.75255">
        <ele>660.59997558594</ele>
        <time>2012-05-25T16:40:27Z</time>
      </trkpt>
      <trkpt lat="45.38415" lon="3.7526">
        <ele>660.5</ele>
        <time>2012-05-25T16:40:29Z</time>
      </trkpt>
      <trkpt lat="45.38417" lon="3.75269">
        <ele>659.5</ele>
        <time>2012-05-25T16:40:32Z</time>
      </trkpt>
      <trkpt lat="45.3842" lon="3.75276">
        <ele>659</ele>
        <time>2012-05-25T16:40:35Z</time>
      </trkpt>
      <trkpt lat="45.38422" lon="3.75283">
        <ele>658.90002441406</ele>
        <time>2012-05-25T16:40:37Z</time>
      </trkpt>
      <trkpt lat="45.38424" lon="3.75291">
        <ele>658.29998779297</ele>
        <time>2012-05-25T16:40:40Z</time>
      </trkpt>
      <trkpt lat="45.38427" lon="3.75299">
        <ele>657.59997558594</ele>
        <time>2012-05-25T16:40:43Z</time>
      </trkpt>
      <trkpt lat="45.38429" lon="3.75308">
        <ele>657.09997558594</ele>
        <time>2012-05-25T16:40:46Z</time>
      </trkpt>
      <trkpt lat="45.3843" lon="3.75314">
        <ele>657.09997558594</ele>
        <time>2012-05-25T16:40:48Z</time>
      </trkpt>
      <trkpt lat="45.38432" lon="3.75321">
        <ele>657.29998779297</ele>
        <time>2012-05-25T16:40:50Z</time>
      </trkpt>
      <trkpt lat="45.38434" lon="3.75327">
        <ele>657</ele>
        <time>2012-05-25T16:40:52Z</time>
      </trkpt>
      <trkpt lat="45.38436" lon="3.75336">
        <ele>656.29998779297</ele>
        <time>2012-05-25T16:40:55Z</time>
      </trkpt>
      <trkpt lat="45.3844" lon="3.75341">
        <ele>658.70001220703</ele>
        <time>2012-05-25T16:40:58Z</time>
      </trkpt>
      <trkpt lat="45.38442" lon="3.75351">
        <ele>658.59997558594</ele>
        <time>2012-05-25T16:41:01Z</time>
      </trkpt>
      <trkpt lat="45.38443" lon="3.75359">
        <ele>658.09997558594</ele>
        <time>2012-05-25T16:41:04Z</time>
      </trkpt>
      <trkpt lat="45.38447" lon="3.75377">
        <ele>657.09997558594</ele>
        <time>2012-05-25T16:41:10Z</time>
      </trkpt>
      <trkpt lat="45.3845" lon="3.75386">
        <ele>657</ele>
        <time>2012-05-25T16:41:13Z</time>
      </trkpt>
      <trkpt lat="45.38453" lon="3.75397">
        <ele>657</ele>
        <time>2012-05-25T16:41:17Z</time>
      </trkpt>
      <trkpt lat="45.38454" lon="3.75404">
        <ele>657</ele>
        <time>2012-05-25T16:41:19Z</time>
      </trkpt>
      <trkpt lat="45.38456" lon="3.7541">
        <ele>656.20001220703</ele>
        <time>2012-05-25T16:41:21Z</time>
      </trkpt>
      <trkpt lat="45.38459" lon="3.75418">
        <ele>655.70001220703</ele>
        <time>2012-05-25T16:41:24Z</time>
      </trkpt>
      <trkpt lat="45.38461" lon="3.75424">
        <ele>655.90002441406</ele>
        <time>2012-05-25T16:41:26Z</time>
      </trkpt>
      <trkpt lat="45.38467" lon="3.75434">
        <ele>656.59997558594</ele>
        <time>2012-05-25T16:41:30Z</time>
      </trkpt>
      <trkpt lat="45.3847" lon="3.75441">
        <ele>656.20001220703</ele>
        <time>2012-05-25T16:41:32Z</time>
      </trkpt>
      <trkpt lat="45.38472" lon="3.75447">
        <ele>656.29998779297</ele>
        <time>2012-05-25T16:41:34Z</time>
      </trkpt>
      <trkpt lat="45.38472" lon="3.75454">
        <ele>656.79998779297</ele>
        <time>2012-05-25T16:41:36Z</time>
      </trkpt>
      <trkpt lat="45.38474" lon="3.75462">
        <ele>655.5</ele>
        <time>2012-05-25T16:41:39Z</time>
      </trkpt>
      <trkpt lat="45.38476" lon="3.7547">
        <ele>653.90002441406</ele>
        <time>2012-05-25T16:41:42Z</time>
      </trkpt>
      <trkpt lat="45.38478" lon="3.75476">
        <ele>654.29998779297</ele>
        <time>2012-05-25T16:41:44Z</time>
      </trkpt>
      <trkpt lat="45.38481" lon="3.75482">
        <ele>653.90002441406</ele>
        <time>2012-05-25T16:41:46Z</time>
      </trkpt>
      <trkpt lat="45.38483" lon="3.75491">
        <ele>654.59997558594</ele>
        <time>2012-05-25T16:41:49Z</time>
      </trkpt>
      <trkpt lat="45.38487" lon="3.75499">
        <ele>654.20001220703</ele>
        <time>2012-05-25T16:41:52Z</time>
      </trkpt>
      <trkpt lat="45.38489" lon="3.75507">
        <ele>654.09997558594</ele>
        <time>2012-05-25T16:41:55Z</time>
      </trkpt>
      <trkpt lat="45.38491" lon="3.75515">
        <ele>654.79998779297</ele>
        <time>2012-05-25T16:41:58Z</time>
      </trkpt>
      <trkpt lat="45.38493" lon="3.75521">
        <ele>656.5</ele>
        <time>2012-05-25T16:42:00Z</time>
      </trkpt>
      <trkpt lat="45.38494" lon="3.75528">
        <ele>655.90002441406</ele>
        <time>2012-05-25T16:42:02Z</time>
      </trkpt>
      <trkpt lat="45.38495" lon="3.75537">
        <ele>654.59997558594</ele>
        <time>2012-05-25T16:42:05Z</time>
      </trkpt>
      <trkpt lat="45.38496" lon="3.75544">
        <ele>655.5</ele>
        <time>2012-05-25T16:42:07Z</time>
      </trkpt>
      <trkpt lat="45.38498" lon="3.75551">
        <ele>655</ele>
        <time>2012-05-25T16:42:09Z</time>
      </trkpt>
      <trkpt lat="45.38499" lon="3.75557">
        <ele>655.40002441406</ele>
        <time>2012-05-25T16:42:11Z</time>
      </trkpt>
      <trkpt lat="45.385" lon="3.75566">
        <ele>655</ele>
        <time>2012-05-25T16:42:14Z</time>
      </trkpt>
      <trkpt lat="45.38501" lon="3.75574">
        <ele>656.79998779297</ele>
        <time>2012-05-25T16:42:17Z</time>
      </trkpt>
      <trkpt lat="45.38503" lon="3.75581">
        <ele>657.20001220703</ele>
        <time>2012-05-25T16:42:19Z</time>
      </trkpt>
      <trkpt lat="45.38504" lon="3.75589">
        <ele>656.90002441406</ele>
        <time>2012-05-25T16:42:22Z</time>
      </trkpt>
      <trkpt lat="45.38505" lon="3.75598">
        <ele>657.20001220703</ele>
        <time>2012-05-25T16:42:25Z</time>
      </trkpt>
      <trkpt lat="45.38506" lon="3.7561">
        <ele>656.20001220703</ele>
        <time>2012-05-25T16:42:29Z</time>
      </trkpt>
      <trkpt lat="45.38508" lon="3.75617">
        <ele>653.59997558594</ele>
        <time>2012-05-25T16:42:32Z</time>
      </trkpt>
      <trkpt lat="45.38511" lon="3.75625">
        <ele>656</ele>
        <time>2012-05-25T16:42:35Z</time>
      </trkpt>
      <trkpt lat="45.38514" lon="3.7563">
        <ele>654.5</ele>
        <time>2012-05-25T16:42:37Z</time>
      </trkpt>
      <trkpt lat="45.38514" lon="3.75638">
        <ele>656.29998779297</ele>
        <time>2012-05-25T16:42:40Z</time>
      </trkpt>
      <trkpt lat="45.38515" lon="3.75647">
        <ele>654.79998779297</ele>
        <time>2012-05-25T16:42:43Z</time>
      </trkpt>
      <trkpt lat="45.38516" lon="3.75655">
        <ele>656.20001220703</ele>
        <time>2012-05-25T16:42:46Z</time>
      </trkpt>
      <trkpt lat="45.38519" lon="3.75662">
        <ele>656.20001220703</ele>
        <time>2012-05-25T16:42:49Z</time>
      </trkpt>
      <trkpt lat="45.38523" lon="3.75669">
        <ele>654.79998779297</ele>
        <time>2012-05-25T16:42:52Z</time>
      </trkpt>
      <trkpt lat="45.38529" lon="3.75672">
        <ele>657.59997558594</ele>
        <time>2012-05-25T16:42:55Z</time>
      </trkpt>
      <trkpt lat="45.38534" lon="3.75674">
        <ele>657.40002441406</ele>
        <time>2012-05-25T16:42:58Z</time>
      </trkpt>
      <trkpt lat="45.38545" lon="3.75672">
        <ele>658.59997558594</ele>
        <time>2012-05-25T16:43:04Z</time>
      </trkpt>
      <trkpt lat="45.38556" lon="3.75674">
        <ele>659.40002441406</ele>
        <time>2012-05-25T16:43:10Z</time>
      </trkpt>
      <trkpt lat="45.38561" lon="3.75671">
        <ele>659.5</ele>
        <time>2012-05-25T16:43:13Z</time>
      </trkpt>
      <trkpt lat="45.38567" lon="3.75674">
        <ele>660.5</ele>
        <time>2012-05-25T16:43:15Z</time>
      </trkpt>
      <trkpt lat="45.38571" lon="3.75677">
        <ele>660.20001220703</ele>
        <time>2012-05-25T16:43:17Z</time>
      </trkpt>
      <trkpt lat="45.38576" lon="3.75676">
        <ele>660.20001220703</ele>
        <time>2012-05-25T16:43:20Z</time>
      </trkpt>
      <trkpt lat="45.38588" lon="3.75679">
        <ele>660.79998779297</ele>
        <time>2012-05-25T16:43:26Z</time>
      </trkpt>
      <trkpt lat="45.38594" lon="3.75683">
        <ele>658.79998779297</ele>
        <time>2012-05-25T16:43:29Z</time>
      </trkpt>
      <trkpt lat="45.38599" lon="3.75687">
        <ele>656.59997558594</ele>
        <time>2012-05-25T16:43:32Z</time>
      </trkpt>
      <trkpt lat="45.38602" lon="3.75692">
        <ele>655.40002441406</ele>
        <time>2012-05-25T16:43:34Z</time>
      </trkpt>
      <trkpt lat="45.38606" lon="3.75697">
        <ele>656.09997558594</ele>
        <time>2012-05-25T16:43:36Z</time>
      </trkpt>
      <trkpt lat="45.38611" lon="3.75701">
        <ele>656.20001220703</ele>
        <time>2012-05-25T16:43:39Z</time>
      </trkpt>
      <trkpt lat="45.38614" lon="3.75707">
        <ele>652.29998779297</ele>
        <time>2012-05-25T16:43:43Z</time>
      </trkpt>
      <trkpt lat="45.3862" lon="3.75717">
        <ele>653.90002441406</ele>
        <time>2012-05-25T16:43:46Z</time>
      </trkpt>
      <trkpt lat="45.38638" lon="3.75727">
        <ele>654.09997558594</ele>
        <time>2012-05-25T16:43:58Z</time>
      </trkpt>
      <trkpt lat="45.38639" lon="3.75734">
        <ele>654</ele>
        <time>2012-05-25T16:44:02Z</time>
      </trkpt>
      <trkpt lat="45.38644" lon="3.75736">
        <ele>654</ele>
        <time>2012-05-25T16:44:05Z</time>
      </trkpt>
      <trkpt lat="45.38648" lon="3.75739">
        <ele>654</ele>
        <time>2012-05-25T16:44:06Z</time>
      </trkpt>
      <trkpt lat="45.38656" lon="3.75748">
        <ele>654</ele>
        <time>2012-05-25T16:44:10Z</time>
      </trkpt>
      <trkpt lat="45.3866" lon="3.75752">
        <ele>654.09997558594</ele>
        <time>2012-05-25T16:44:11Z</time>
      </trkpt>
      <trkpt lat="45.38664" lon="3.75756">
        <ele>654.29998779297</ele>
        <time>2012-05-25T16:44:14Z</time>
      </trkpt>
      <trkpt lat="45.38667" lon="3.75763">
        <ele>654.20001220703</ele>
        <time>2012-05-25T16:44:17Z</time>
      </trkpt>
      <trkpt lat="45.38673" lon="3.75768">
        <ele>654.70001220703</ele>
        <time>2012-05-25T16:44:20Z</time>
      </trkpt>
      <trkpt lat="45.38676" lon="3.75773">
        <ele>655.79998779297</ele>
        <time>2012-05-25T16:44:22Z</time>
      </trkpt>
      <trkpt lat="45.38681" lon="3.75775">
        <ele>656.59997558594</ele>
        <time>2012-05-25T16:44:24Z</time>
      </trkpt>
      <trkpt lat="45.38684" lon="3.75782">
        <ele>656.40002441406</ele>
        <time>2012-05-25T16:44:27Z</time>
      </trkpt>
      <trkpt lat="45.38688" lon="3.75789">
        <ele>657.59997558594</ele>
        <time>2012-05-25T16:44:31Z</time>
      </trkpt>
      <trkpt lat="45.38692" lon="3.75797">
        <ele>658.79998779297</ele>
        <time>2012-05-25T16:44:34Z</time>
      </trkpt>
      <trkpt lat="45.38696" lon="3.75804">
        <ele>657.90002441406</ele>
        <time>2012-05-25T16:44:37Z</time>
      </trkpt>
      <trkpt lat="45.38701" lon="3.75809">
        <ele>658.29998779297</ele>
        <time>2012-05-25T16:44:40Z</time>
      </trkpt>
      <trkpt lat="45.38711" lon="3.75823">
        <ele>658.70001220703</ele>
        <time>2012-05-25T16:44:45Z</time>
      </trkpt>
      <trkpt lat="45.38715" lon="3.75828">
        <ele>658.79998779297</ele>
        <time>2012-05-25T16:44:46Z</time>
      </trkpt>
      <trkpt lat="45.38724" lon="3.75839">
        <ele>660.59997558594</ele>
        <time>2012-05-25T16:44:54Z</time>
      </trkpt>
      <trkpt lat="45.38728" lon="3.75846">
        <ele>660.70001220703</ele>
        <time>2012-05-25T16:44:58Z</time>
      </trkpt>
      <trkpt lat="45.38733" lon="3.75856">
        <ele>662.29998779297</ele>
        <time>2012-05-25T16:45:02Z</time>
      </trkpt>
      <trkpt lat="45.38736" lon="3.75864">
        <ele>662.70001220703</ele>
        <time>2012-05-25T16:45:05Z</time>
      </trkpt>
      <trkpt lat="45.38744" lon="3.75866">
        <ele>662.40002441406</ele>
        <time>2012-05-25T16:45:08Z</time>
      </trkpt>
      <trkpt lat="45.38748" lon="3.75873">
        <ele>661</ele>
        <time>2012-05-25T16:45:10Z</time>
      </trkpt>
      <trkpt lat="45.38751" lon="3.75878">
        <ele>661.70001220703</ele>
        <time>2012-05-25T16:45:12Z</time>
      </trkpt>
      <trkpt lat="45.38757" lon="3.7588">
        <ele>661.90002441406</ele>
        <time>2012-05-25T16:45:16Z</time>
      </trkpt>
      <trkpt lat="45.38762" lon="3.75882">
        <ele>659.79998779297</ele>
        <time>2012-05-25T16:45:18Z</time>
      </trkpt>
      <trkpt lat="45.38765" lon="3.75888">
        <ele>660</ele>
        <time>2012-05-25T16:45:20Z</time>
      </trkpt>
      <trkpt lat="45.38768" lon="3.75892">
        <ele>660.90002441406</ele>
        <time>2012-05-25T16:45:22Z</time>
      </trkpt>
      <trkpt lat="45.38772" lon="3.75898">
        <ele>661.29998779297</ele>
        <time>2012-05-25T16:45:24Z</time>
      </trkpt>
      <trkpt lat="45.38777" lon="3.75901">
        <ele>661.09997558594</ele>
        <time>2012-05-25T16:45:26Z</time>
      </trkpt>
      <trkpt lat="45.3878" lon="3.75907">
        <ele>660.59997558594</ele>
        <time>2012-05-25T16:45:29Z</time>
      </trkpt>
      <trkpt lat="45.38786" lon="3.75907">
        <ele>661</ele>
        <time>2012-05-25T16:45:32Z</time>
      </trkpt>
      <trkpt lat="45.38792" lon="3.75911">
        <ele>662.5</ele>
        <time>2012-05-25T16:45:37Z</time>
      </trkpt>
      <trkpt lat="45.38799" lon="3.75913">
        <ele>661.40002441406</ele>
        <time>2012-05-25T16:45:39Z</time>
      </trkpt>
      <trkpt lat="45.38804" lon="3.75915">
        <ele>661.90002441406</ele>
        <time>2012-05-25T16:45:41Z</time>
      </trkpt>
      <trkpt lat="45.38809" lon="3.75916">
        <ele>661.5</ele>
        <time>2012-05-25T16:45:44Z</time>
      </trkpt>
      <trkpt lat="45.38815" lon="3.75918">
        <ele>662.70001220703</ele>
        <time>2012-05-25T16:45:46Z</time>
      </trkpt>
      <trkpt lat="45.38819" lon="3.75917">
        <ele>662.20001220703</ele>
        <time>2012-05-25T16:45:49Z</time>
      </trkpt>
      <trkpt lat="45.38824" lon="3.75917">
        <ele>662.09997558594</ele>
        <time>2012-05-25T16:45:51Z</time>
      </trkpt>
      <trkpt lat="45.3883" lon="3.75917">
        <ele>662.09997558594</ele>
        <time>2012-05-25T16:45:53Z</time>
      </trkpt>
      <trkpt lat="45.38835" lon="3.75916">
        <ele>661.40002441406</ele>
        <time>2012-05-25T16:45:55Z</time>
      </trkpt>
      <trkpt lat="45.38841" lon="3.75917">
        <ele>661.20001220703</ele>
        <time>2012-05-25T16:45:57Z</time>
      </trkpt>
      <trkpt lat="45.38847" lon="3.75917">
        <ele>660.79998779297</ele>
        <time>2012-05-25T16:45:59Z</time>
      </trkpt>
      <trkpt lat="45.38853" lon="3.75917">
        <ele>659.59997558594</ele>
        <time>2012-05-25T16:46:02Z</time>
      </trkpt>
      <trkpt lat="45.38859" lon="3.75917">
        <ele>658.70001220703</ele>
        <time>2012-05-25T16:46:04Z</time>
      </trkpt>
      <trkpt lat="45.38868" lon="3.75919">
        <ele>658</ele>
        <time>2012-05-25T16:46:09Z</time>
      </trkpt>
      <trkpt lat="45.38873" lon="3.75921">
        <ele>657.59997558594</ele>
        <time>2012-05-25T16:46:11Z</time>
      </trkpt>
      <trkpt lat="45.38878" lon="3.75921">
        <ele>656.5</ele>
        <time>2012-05-25T16:46:13Z</time>
      </trkpt>
      <trkpt lat="45.38883" lon="3.75921">
        <ele>656.09997558594</ele>
        <time>2012-05-25T16:46:16Z</time>
      </trkpt>
      <trkpt lat="45.38889" lon="3.75921">
        <ele>656.59997558594</ele>
        <time>2012-05-25T16:46:19Z</time>
      </trkpt>
      <trkpt lat="45.38894" lon="3.75922">
        <ele>657.09997558594</ele>
        <time>2012-05-25T16:46:22Z</time>
      </trkpt>
      <trkpt lat="45.389" lon="3.7592">
        <ele>657.5</ele>
        <time>2012-05-25T16:46:24Z</time>
      </trkpt>
      <trkpt lat="45.38906" lon="3.7592">
        <ele>657.40002441406</ele>
        <time>2012-05-25T16:46:27Z</time>
      </trkpt>
      <trkpt lat="45.38911" lon="3.75919">
        <ele>657.70001220703</ele>
        <time>2012-05-25T16:46:30Z</time>
      </trkpt>
      <trkpt lat="45.38916" lon="3.75919">
        <ele>657.09997558594</ele>
        <time>2012-05-25T16:46:32Z</time>
      </trkpt>
      <trkpt lat="45.38921" lon="3.75918">
        <ele>657.20001220703</ele>
        <time>2012-05-25T16:46:34Z</time>
      </trkpt>
      <trkpt lat="45.38929" lon="3.75919">
        <ele>657.29998779297</ele>
        <time>2012-05-25T16:46:37Z</time>
      </trkpt>
      <trkpt lat="45.38934" lon="3.75916">
        <ele>656.79998779297</ele>
        <time>2012-05-25T16:46:38Z</time>
      </trkpt>
      <trkpt lat="45.38939" lon="3.75915">
        <ele>656.40002441406</ele>
        <time>2012-05-25T16:46:41Z</time>
      </trkpt>
      <trkpt lat="45.38946" lon="3.75917">
        <ele>656.90002441406</ele>
        <time>2012-05-25T16:46:44Z</time>
      </trkpt>
      <trkpt lat="45.38952" lon="3.75918">
        <ele>657.29998779297</ele>
        <time>2012-05-25T16:46:48Z</time>
      </trkpt>
      <trkpt lat="45.38962" lon="3.75921">
        <ele>657.5</ele>
        <time>2012-05-25T16:46:52Z</time>
      </trkpt>
      <trkpt lat="45.38966" lon="3.75923">
        <ele>657.70001220703</ele>
        <time>2012-05-25T16:46:54Z</time>
      </trkpt>
      <trkpt lat="45.38971" lon="3.75925">
        <ele>658.59997558594</ele>
        <time>2012-05-25T16:46:56Z</time>
      </trkpt>
      <trkpt lat="45.38977" lon="3.75929">
        <ele>658.40002441406</ele>
        <time>2012-05-25T16:46:59Z</time>
      </trkpt>
      <trkpt lat="45.38981" lon="3.75931">
        <ele>658.20001220703</ele>
        <time>2012-05-25T16:47:01Z</time>
      </trkpt>
      <trkpt lat="45.38987" lon="3.75932">
        <ele>658.5</ele>
        <time>2012-05-25T16:47:03Z</time>
      </trkpt>
      <trkpt lat="45.38992" lon="3.75935">
        <ele>658.29998779297</ele>
        <time>2012-05-25T16:47:05Z</time>
      </trkpt>
      <trkpt lat="45.39002" lon="3.75938">
        <ele>655.70001220703</ele>
        <time>2012-05-25T16:47:10Z</time>
      </trkpt>
      <trkpt lat="45.39008" lon="3.7594">
        <ele>656.29998779297</ele>
        <time>2012-05-25T16:47:13Z</time>
      </trkpt>
      <trkpt lat="45.39017" lon="3.75943">
        <ele>657.09997558594</ele>
        <time>2012-05-25T16:47:17Z</time>
      </trkpt>
      <trkpt lat="45.39023" lon="3.75944">
        <ele>655.90002441406</ele>
        <time>2012-05-25T16:47:20Z</time>
      </trkpt>
      <trkpt lat="45.39028" lon="3.75946">
        <ele>655.79998779297</ele>
        <time>2012-05-25T16:47:23Z</time>
      </trkpt>
      <trkpt lat="45.39032" lon="3.75948">
        <ele>655.5</ele>
        <time>2012-05-25T16:47:25Z</time>
      </trkpt>
      <trkpt lat="45.39042" lon="3.75952">
        <ele>655.70001220703</ele>
        <time>2012-05-25T16:47:31Z</time>
      </trkpt>
      <trkpt lat="45.39047" lon="3.75953">
        <ele>655.79998779297</ele>
        <time>2012-05-25T16:47:33Z</time>
      </trkpt>
      <trkpt lat="45.39052" lon="3.75955">
        <ele>655.40002441406</ele>
        <time>2012-05-25T16:47:35Z</time>
      </trkpt>
      <trkpt lat="45.39058" lon="3.75957">
        <ele>655.09997558594</ele>
        <time>2012-05-25T16:47:38Z</time>
      </trkpt>
      <trkpt lat="45.39064" lon="3.75958">
        <ele>654.40002441406</ele>
        <time>2012-05-25T16:47:41Z</time>
      </trkpt>
      <trkpt lat="45.3907" lon="3.75962">
        <ele>652.59997558594</ele>
        <time>2012-05-25T16:47:44Z</time>
      </trkpt>
      <trkpt lat="45.39074" lon="3.75964">
        <ele>652.20001220703</ele>
        <time>2012-05-25T16:47:46Z</time>
      </trkpt>
      <trkpt lat="45.39082" lon="3.75968">
        <ele>651.79998779297</ele>
        <time>2012-05-25T16:47:50Z</time>
      </trkpt>
      <trkpt lat="45.39093" lon="3.75974">
        <ele>649.70001220703</ele>
        <time>2012-05-25T16:47:57Z</time>
      </trkpt>
      <trkpt lat="45.39107" lon="3.75979">
        <ele>650.5</ele>
        <time>2012-05-25T16:48:03Z</time>
      </trkpt>
      <trkpt lat="45.39113" lon="3.75981">
        <ele>652.40002441406</ele>
        <time>2012-05-25T16:48:06Z</time>
      </trkpt>
      <trkpt lat="45.39119" lon="3.75982">
        <ele>652.79998779297</ele>
        <time>2012-05-25T16:48:08Z</time>
      </trkpt>
      <trkpt lat="45.39124" lon="3.75983">
        <ele>653.5</ele>
        <time>2012-05-25T16:48:10Z</time>
      </trkpt>
      <trkpt lat="45.3913" lon="3.7599">
        <ele>652.59997558594</ele>
        <time>2012-05-25T16:48:15Z</time>
      </trkpt>
      <trkpt lat="45.39136" lon="3.75992">
        <ele>653.09997558594</ele>
        <time>2012-05-25T16:48:18Z</time>
      </trkpt>
      <trkpt lat="45.39144" lon="3.75993">
        <ele>652.79998779297</ele>
        <time>2012-05-25T16:48:21Z</time>
      </trkpt>
      <trkpt lat="45.39149" lon="3.75995">
        <ele>652.70001220703</ele>
        <time>2012-05-25T16:48:23Z</time>
      </trkpt>
      <trkpt lat="45.39158" lon="3.75998">
        <ele>651.79998779297</ele>
        <time>2012-05-25T16:48:27Z</time>
      </trkpt>
      <trkpt lat="45.39165" lon="3.76001">
        <ele>652.79998779297</ele>
        <time>2012-05-25T16:48:29Z</time>
      </trkpt>
      <trkpt lat="45.3917" lon="3.76003">
        <ele>655.20001220703</ele>
        <time>2012-05-25T16:48:31Z</time>
      </trkpt>
      <trkpt lat="45.39176" lon="3.76006">
        <ele>655.20001220703</ele>
        <time>2012-05-25T16:48:34Z</time>
      </trkpt>
      <trkpt lat="45.39181" lon="3.76009">
        <ele>655.59997558594</ele>
        <time>2012-05-25T16:48:38Z</time>
      </trkpt>
      <trkpt lat="45.39194" lon="3.76016">
        <ele>657.70001220703</ele>
        <time>2012-05-25T16:48:44Z</time>
      </trkpt>
      <trkpt lat="45.39199" lon="3.7602">
        <ele>657</ele>
        <time>2012-05-25T16:48:47Z</time>
      </trkpt>
      <trkpt lat="45.39211" lon="3.76022">
        <ele>655</ele>
        <time>2012-05-25T16:48:52Z</time>
      </trkpt>
      <trkpt lat="45.39216" lon="3.76024">
        <ele>655</ele>
        <time>2012-05-25T16:48:54Z</time>
      </trkpt>
      <trkpt lat="45.39221" lon="3.76024">
        <ele>656.5</ele>
        <time>2012-05-25T16:48:56Z</time>
      </trkpt>
      <trkpt lat="45.39226" lon="3.76024">
        <ele>655.29998779297</ele>
        <time>2012-05-25T16:48:58Z</time>
      </trkpt>
      <trkpt lat="45.39233" lon="3.76026">
        <ele>654.5</ele>
        <time>2012-05-25T16:49:01Z</time>
      </trkpt>
      <trkpt lat="45.39239" lon="3.76026">
        <ele>653.20001220703</ele>
        <time>2012-05-25T16:49:04Z</time>
      </trkpt>
      <trkpt lat="45.39245" lon="3.76029">
        <ele>653.5</ele>
        <time>2012-05-25T16:49:07Z</time>
      </trkpt>
      <trkpt lat="45.3925" lon="3.76029">
        <ele>654.09997558594</ele>
        <time>2012-05-25T16:49:09Z</time>
      </trkpt>
      <trkpt lat="45.39255" lon="3.76029">
        <ele>653.79998779297</ele>
        <time>2012-05-25T16:49:11Z</time>
      </trkpt>
      <trkpt lat="45.39262" lon="3.76029">
        <ele>653.5</ele>
        <time>2012-05-25T16:49:14Z</time>
      </trkpt>
      <trkpt lat="45.39269" lon="3.76031">
        <ele>654.29998779297</ele>
        <time>2012-05-25T16:49:17Z</time>
      </trkpt>
      <trkpt lat="45.39275" lon="3.76034">
        <ele>654</ele>
        <time>2012-05-25T16:49:20Z</time>
      </trkpt>
      <trkpt lat="45.39282" lon="3.76035">
        <ele>653.40002441406</ele>
        <time>2012-05-25T16:49:23Z</time>
      </trkpt>
      <trkpt lat="45.39288" lon="3.76037">
        <ele>653.90002441406</ele>
        <time>2012-05-25T16:49:26Z</time>
      </trkpt>
      <trkpt lat="45.39295" lon="3.76039">
        <ele>655.20001220703</ele>
        <time>2012-05-25T16:49:29Z</time>
      </trkpt>
      <trkpt lat="45.3931" lon="3.76045">
        <ele>656.79998779297</ele>
        <time>2012-05-25T16:49:37Z</time>
      </trkpt>
      <trkpt lat="45.39315" lon="3.7605">
        <ele>656.40002441406</ele>
        <time>2012-05-25T16:49:39Z</time>
      </trkpt>
      <trkpt lat="45.3932" lon="3.76051">
        <ele>657</ele>
        <time>2012-05-25T16:49:42Z</time>
      </trkpt>
      <trkpt lat="45.39327" lon="3.76051">
        <ele>655.70001220703</ele>
        <time>2012-05-25T16:49:44Z</time>
      </trkpt>
      <trkpt lat="45.39331" lon="3.76055">
        <ele>654.5</ele>
        <time>2012-05-25T16:49:47Z</time>
      </trkpt>
      <trkpt lat="45.39337" lon="3.76059">
        <ele>653.70001220703</ele>
        <time>2012-05-25T16:49:50Z</time>
      </trkpt>
      <trkpt lat="45.39342" lon="3.76061">
        <ele>654.20001220703</ele>
        <time>2012-05-25T16:49:52Z</time>
      </trkpt>
      <trkpt lat="45.39347" lon="3.76065">
        <ele>654.40002441406</ele>
        <time>2012-05-25T16:49:54Z</time>
      </trkpt>
      <trkpt lat="45.39351" lon="3.76067">
        <ele>654.09997558594</ele>
        <time>2012-05-25T16:49:57Z</time>
      </trkpt>
      <trkpt lat="45.39355" lon="3.76071">
        <ele>652.59997558594</ele>
        <time>2012-05-25T16:50:00Z</time>
      </trkpt>
      <trkpt lat="45.3936" lon="3.76072">
        <ele>652.70001220703</ele>
        <time>2012-05-25T16:50:03Z</time>
      </trkpt>
      <trkpt lat="45.39364" lon="3.76075">
        <ele>654.09997558594</ele>
        <time>2012-05-25T16:50:05Z</time>
      </trkpt>
      <trkpt lat="45.39369" lon="3.76079">
        <ele>653.40002441406</ele>
        <time>2012-05-25T16:50:08Z</time>
      </trkpt>
      <trkpt lat="45.39374" lon="3.76081">
        <ele>654.09997558594</ele>
        <time>2012-05-25T16:50:11Z</time>
      </trkpt>
      <trkpt lat="45.39385" lon="3.76084">
        <ele>655.5</ele>
        <time>2012-05-25T16:50:16Z</time>
      </trkpt>
      <trkpt lat="45.39393" lon="3.76086">
        <ele>656.29998779297</ele>
        <time>2012-05-25T16:50:20Z</time>
      </trkpt>
      <trkpt lat="45.39399" lon="3.76086">
        <ele>656.5</ele>
        <time>2012-05-25T16:50:23Z</time>
      </trkpt>
      <trkpt lat="45.39405" lon="3.76088">
        <ele>657</ele>
        <time>2012-05-25T16:50:26Z</time>
      </trkpt>
      <trkpt lat="45.39409" lon="3.76088">
        <ele>656.20001220703</ele>
        <time>2012-05-25T16:50:28Z</time>
      </trkpt>
      <trkpt lat="45.39415" lon="3.76092">
        <ele>657.90002441406</ele>
        <time>2012-05-25T16:50:31Z</time>
      </trkpt>
      <trkpt lat="45.39421" lon="3.76094">
        <ele>657.90002441406</ele>
        <time>2012-05-25T16:50:34Z</time>
      </trkpt>
      <trkpt lat="45.3944" lon="3.761">
        <ele>658.09997558594</ele>
        <time>2012-05-25T16:50:43Z</time>
      </trkpt>
      <trkpt lat="45.39444" lon="3.76106">
        <ele>657.90002441406</ele>
        <time>2012-05-25T16:50:45Z</time>
      </trkpt>
      <trkpt lat="45.3945" lon="3.7611">
        <ele>660.5</ele>
        <time>2012-05-25T16:50:49Z</time>
      </trkpt>
      <trkpt lat="45.39463" lon="3.76117">
        <ele>659.5</ele>
        <time>2012-05-25T16:50:55Z</time>
      </trkpt>
      <trkpt lat="45.39472" lon="3.76123">
        <ele>658.79998779297</ele>
        <time>2012-05-25T16:51:00Z</time>
      </trkpt>
      <trkpt lat="45.39476" lon="3.76126">
        <ele>658.90002441406</ele>
        <time>2012-05-25T16:51:02Z</time>
      </trkpt>
      <trkpt lat="45.39485" lon="3.76128">
        <ele>658.20001220703</ele>
        <time>2012-05-25T16:51:08Z</time>
      </trkpt>
      <trkpt lat="45.3949" lon="3.76132">
        <ele>658.70001220703</ele>
        <time>2012-05-25T16:51:10Z</time>
      </trkpt>
      <trkpt lat="45.39495" lon="3.76134">
        <ele>659</ele>
        <time>2012-05-25T16:51:13Z</time>
      </trkpt>
      <trkpt lat="45.39501" lon="3.76136">
        <ele>658.70001220703</ele>
        <time>2012-05-25T16:51:16Z</time>
      </trkpt>
      <trkpt lat="45.39509" lon="3.76137">
        <ele>658.09997558594</ele>
        <time>2012-05-25T16:51:21Z</time>
      </trkpt>
      <trkpt lat="45.39514" lon="3.76138">
        <ele>657.90002441406</ele>
        <time>2012-05-25T16:51:23Z</time>
      </trkpt>
      <trkpt lat="45.3952" lon="3.7614">
        <ele>658.09997558594</ele>
        <time>2012-05-25T16:51:25Z</time>
      </trkpt>
      <trkpt lat="45.39526" lon="3.76141">
        <ele>657</ele>
        <time>2012-05-25T16:51:28Z</time>
      </trkpt>
      <trkpt lat="45.39533" lon="3.76144">
        <ele>657.40002441406</ele>
        <time>2012-05-25T16:51:31Z</time>
      </trkpt>
      <trkpt lat="45.39538" lon="3.76148">
        <ele>657.5</ele>
        <time>2012-05-25T16:51:34Z</time>
      </trkpt>
      <trkpt lat="45.39545" lon="3.76151">
        <ele>658.5</ele>
        <time>2012-05-25T16:51:37Z</time>
      </trkpt>
      <trkpt lat="45.39556" lon="3.76157">
        <ele>662.59997558594</ele>
        <time>2012-05-25T16:51:43Z</time>
      </trkpt>
      <trkpt lat="45.39563" lon="3.7616">
        <ele>662.70001220703</ele>
        <time>2012-05-25T16:51:47Z</time>
      </trkpt>
      <trkpt lat="45.39569" lon="3.76163">
        <ele>661</ele>
        <time>2012-05-25T16:51:50Z</time>
      </trkpt>
      <trkpt lat="45.39575" lon="3.76167">
        <ele>662.79998779297</ele>
        <time>2012-05-25T16:51:53Z</time>
      </trkpt>
      <trkpt lat="45.3958" lon="3.7617">
        <ele>662.29998779297</ele>
        <time>2012-05-25T16:51:56Z</time>
      </trkpt>
      <trkpt lat="45.39586" lon="3.76173">
        <ele>664.5</ele>
        <time>2012-05-25T16:51:58Z</time>
      </trkpt>
      <trkpt lat="45.39596" lon="3.76182">
        <ele>661.5</ele>
        <time>2012-05-25T16:52:04Z</time>
      </trkpt>
      <trkpt lat="45.39601" lon="3.76187">
        <ele>661.59997558594</ele>
        <time>2012-05-25T16:52:07Z</time>
      </trkpt>
      <trkpt lat="45.39606" lon="3.76192">
        <ele>661.70001220703</ele>
        <time>2012-05-25T16:52:10Z</time>
      </trkpt>
      <trkpt lat="45.39611" lon="3.76196">
        <ele>661.59997558594</ele>
        <time>2012-05-25T16:52:12Z</time>
      </trkpt>
      <trkpt lat="45.39615" lon="3.76199">
        <ele>660.70001220703</ele>
        <time>2012-05-25T16:52:15Z</time>
      </trkpt>
      <trkpt lat="45.3962" lon="3.76203">
        <ele>661</ele>
        <time>2012-05-25T16:52:18Z</time>
      </trkpt>
      <trkpt lat="45.39625" lon="3.76205">
        <ele>660.59997558594</ele>
        <time>2012-05-25T16:52:21Z</time>
      </trkpt>
      <trkpt lat="45.39629" lon="3.76208">
        <ele>659.90002441406</ele>
        <time>2012-05-25T16:52:23Z</time>
      </trkpt>
      <trkpt lat="45.39635" lon="3.76211">
        <ele>660.29998779297</ele>
        <time>2012-05-25T16:52:26Z</time>
      </trkpt>
      <trkpt lat="45.3964" lon="3.76212">
        <ele>659.59997558594</ele>
        <time>2012-05-25T16:52:28Z</time>
      </trkpt>
      <trkpt lat="45.39645" lon="3.76215">
        <ele>659.70001220703</ele>
        <time>2012-05-25T16:52:31Z</time>
      </trkpt>
      <trkpt lat="45.3965" lon="3.76218">
        <ele>659.70001220703</ele>
        <time>2012-05-25T16:52:33Z</time>
      </trkpt>
      <trkpt lat="45.39654" lon="3.76221">
        <ele>658.90002441406</ele>
        <time>2012-05-25T16:52:36Z</time>
      </trkpt>
      <trkpt lat="45.39658" lon="3.76222">
        <ele>658.29998779297</ele>
        <time>2012-05-25T16:52:38Z</time>
      </trkpt>
      <trkpt lat="45.39663" lon="3.76226">
        <ele>658</ele>
        <time>2012-05-25T16:52:41Z</time>
      </trkpt>
      <trkpt lat="45.39668" lon="3.76227">
        <ele>657.59997558594</ele>
        <time>2012-05-25T16:52:44Z</time>
      </trkpt>
      <trkpt lat="45.39672" lon="3.76231">
        <ele>656.79998779297</ele>
        <time>2012-05-25T16:52:47Z</time>
      </trkpt>
      <trkpt lat="45.39679" lon="3.76233">
        <ele>657.40002441406</ele>
        <time>2012-05-25T16:52:50Z</time>
      </trkpt>
      <trkpt lat="45.39684" lon="3.76238">
        <ele>657.90002441406</ele>
        <time>2012-05-25T16:52:53Z</time>
      </trkpt>
      <trkpt lat="45.39689" lon="3.76242">
        <ele>658.29998779297</ele>
        <time>2012-05-25T16:52:56Z</time>
      </trkpt>
      <trkpt lat="45.39695" lon="3.76246">
        <ele>659.59997558594</ele>
        <time>2012-05-25T16:52:59Z</time>
      </trkpt>
      <trkpt lat="45.39699" lon="3.76251">
        <ele>658</ele>
        <time>2012-05-25T16:53:02Z</time>
      </trkpt>
      <trkpt lat="45.39704" lon="3.76256">
        <ele>657.70001220703</ele>
        <time>2012-05-25T16:53:05Z</time>
      </trkpt>
      <trkpt lat="45.39709" lon="3.76257">
        <ele>657.40002441406</ele>
        <time>2012-05-25T16:53:07Z</time>
      </trkpt>
      <trkpt lat="45.39714" lon="3.76261">
        <ele>656.29998779297</ele>
        <time>2012-05-25T16:53:10Z</time>
      </trkpt>
      <trkpt lat="45.39719" lon="3.76265">
        <ele>657.5</ele>
        <time>2012-05-25T16:53:13Z</time>
      </trkpt>
      <trkpt lat="45.39725" lon="3.76269">
        <ele>658.90002441406</ele>
        <time>2012-05-25T16:53:16Z</time>
      </trkpt>
      <trkpt lat="45.39729" lon="3.76273">
        <ele>659.40002441406</ele>
        <time>2012-05-25T16:53:18Z</time>
      </trkpt>
      <trkpt lat="45.39734" lon="3.76275">
        <ele>659.5</ele>
        <time>2012-05-25T16:53:21Z</time>
      </trkpt>
      <trkpt lat="45.39739" lon="3.76279">
        <ele>660.20001220703</ele>
        <time>2012-05-25T16:53:24Z</time>
      </trkpt>
      <trkpt lat="45.39743" lon="3.76282">
        <ele>659.70001220703</ele>
        <time>2012-05-25T16:53:26Z</time>
      </trkpt>
      <trkpt lat="45.39749" lon="3.76287">
        <ele>659.70001220703</ele>
        <time>2012-05-25T16:53:29Z</time>
      </trkpt>
      <trkpt lat="45.39754" lon="3.76292">
        <ele>659.90002441406</ele>
        <time>2012-05-25T16:53:32Z</time>
      </trkpt>
      <trkpt lat="45.3976" lon="3.76293">
        <ele>659.20001220703</ele>
        <time>2012-05-25T16:53:35Z</time>
      </trkpt>
      <trkpt lat="45.39764" lon="3.76297">
        <ele>659.90002441406</ele>
        <time>2012-05-25T16:53:38Z</time>
      </trkpt>
      <trkpt lat="45.39769" lon="3.76302">
        <ele>661</ele>
        <time>2012-05-25T16:53:41Z</time>
      </trkpt>
      <trkpt lat="45.39775" lon="3.76308">
        <ele>662</ele>
        <time>2012-05-25T16:53:45Z</time>
      </trkpt>
      <trkpt lat="45.39779" lon="3.76311">
        <ele>660.79998779297</ele>
        <time>2012-05-25T16:53:48Z</time>
      </trkpt>
      <trkpt lat="45.39785" lon="3.76315">
        <ele>661.20001220703</ele>
        <time>2012-05-25T16:53:51Z</time>
      </trkpt>
      <trkpt lat="45.39788" lon="3.76318">
        <ele>660.29998779297</ele>
        <time>2012-05-25T16:53:54Z</time>
      </trkpt>
      <trkpt lat="45.39794" lon="3.76322">
        <ele>660.5</ele>
        <time>2012-05-25T16:53:57Z</time>
      </trkpt>
      <trkpt lat="45.39798" lon="3.76326">
        <ele>661.40002441406</ele>
        <time>2012-05-25T16:54:01Z</time>
      </trkpt>
      <trkpt lat="45.39802" lon="3.7633">
        <ele>661.29998779297</ele>
        <time>2012-05-25T16:54:05Z</time>
      </trkpt>
      <trkpt lat="45.39807" lon="3.76333">
        <ele>661.09997558594</ele>
        <time>2012-05-25T16:54:08Z</time>
      </trkpt>
      <trkpt lat="45.39811" lon="3.76335">
        <ele>660.09997558594</ele>
        <time>2012-05-25T16:54:10Z</time>
      </trkpt>
      <trkpt lat="45.39817" lon="3.76341">
        <ele>659.5</ele>
        <time>2012-05-25T16:54:13Z</time>
      </trkpt>
      <trkpt lat="45.39822" lon="3.76345">
        <ele>659.70001220703</ele>
        <time>2012-05-25T16:54:15Z</time>
      </trkpt>
      <trkpt lat="45.39827" lon="3.76348">
        <ele>660</ele>
        <time>2012-05-25T16:54:17Z</time>
      </trkpt>
      <trkpt lat="45.39832" lon="3.76353">
        <ele>659.90002441406</ele>
        <time>2012-05-25T16:54:19Z</time>
      </trkpt>
      <trkpt lat="45.39846" lon="3.76367">
        <ele>660.90002441406</ele>
        <time>2012-05-25T16:54:25Z</time>
      </trkpt>
      <trkpt lat="45.3985" lon="3.76372">
        <ele>660.70001220703</ele>
        <time>2012-05-25T16:54:27Z</time>
      </trkpt>
      <trkpt lat="45.39854" lon="3.76377">
        <ele>660.09997558594</ele>
        <time>2012-05-25T16:54:29Z</time>
      </trkpt>
      <trkpt lat="45.39859" lon="3.76382">
        <ele>661</ele>
        <time>2012-05-25T16:54:31Z</time>
      </trkpt>
      <trkpt lat="45.39862" lon="3.76388">
        <ele>660.40002441406</ele>
        <time>2012-05-25T16:54:33Z</time>
      </trkpt>
      <trkpt lat="45.39876" lon="3.76399">
        <ele>660.40002441406</ele>
        <time>2012-05-25T16:54:38Z</time>
      </trkpt>
      <trkpt lat="45.39881" lon="3.76405">
        <ele>660.90002441406</ele>
        <time>2012-05-25T16:54:40Z</time>
      </trkpt>
      <trkpt lat="45.39885" lon="3.76411">
        <ele>659.90002441406</ele>
        <time>2012-05-25T16:54:43Z</time>
      </trkpt>
      <trkpt lat="45.39889" lon="3.76416">
        <ele>660.5</ele>
        <time>2012-05-25T16:54:45Z</time>
      </trkpt>
      <trkpt lat="45.39894" lon="3.7642">
        <ele>659.5</ele>
        <time>2012-05-25T16:54:47Z</time>
      </trkpt>
      <trkpt lat="45.39898" lon="3.76426">
        <ele>658.5</ele>
        <time>2012-05-25T16:54:50Z</time>
      </trkpt>
      <trkpt lat="45.39902" lon="3.76433">
        <ele>658.29998779297</ele>
        <time>2012-05-25T16:54:53Z</time>
      </trkpt>
      <trkpt lat="45.39905" lon="3.76438">
        <ele>660.90002441406</ele>
        <time>2012-05-25T16:54:55Z</time>
      </trkpt>
      <trkpt lat="45.39909" lon="3.76443">
        <ele>662.09997558594</ele>
        <time>2012-05-25T16:54:58Z</time>
      </trkpt>
      <trkpt lat="45.39914" lon="3.76445">
        <ele>662.20001220703</ele>
        <time>2012-05-25T16:55:00Z</time>
      </trkpt>
      <trkpt lat="45.39919" lon="3.76449">
        <ele>662.20001220703</ele>
        <time>2012-05-25T16:55:03Z</time>
      </trkpt>
      <trkpt lat="45.39922" lon="3.76453">
        <ele>662.29998779297</ele>
        <time>2012-05-25T16:55:06Z</time>
      </trkpt>
      <trkpt lat="45.39927" lon="3.76461">
        <ele>661.79998779297</ele>
        <time>2012-05-25T16:55:11Z</time>
      </trkpt>
      <trkpt lat="45.39923" lon="3.76454">
        <ele>664.09997558594</ele>
        <time>2012-05-25T16:55:20Z</time>
      </trkpt>
      <trkpt lat="45.39919" lon="3.76448">
        <ele>664.29998779297</ele>
        <time>2012-05-25T16:55:24Z</time>
      </trkpt>
      <trkpt lat="45.39915" lon="3.76444">
        <ele>663.70001220703</ele>
        <time>2012-05-25T16:55:27Z</time>
      </trkpt>
      <trkpt lat="45.3991" lon="3.7644">
        <ele>664.20001220703</ele>
        <time>2012-05-25T16:55:30Z</time>
      </trkpt>
      <trkpt lat="45.39905" lon="3.76434">
        <ele>662.90002441406</ele>
        <time>2012-05-25T16:55:33Z</time>
      </trkpt>
      <trkpt lat="45.39902" lon="3.76429">
        <ele>662.20001220703</ele>
        <time>2012-05-25T16:55:35Z</time>
      </trkpt>
      <trkpt lat="45.39897" lon="3.76424">
        <ele>662.40002441406</ele>
        <time>2012-05-25T16:55:38Z</time>
      </trkpt>
      <trkpt lat="45.39891" lon="3.76418">
        <ele>662.09997558594</ele>
        <time>2012-05-25T16:55:41Z</time>
      </trkpt>
      <trkpt lat="45.39888" lon="3.76413">
        <ele>661.90002441406</ele>
        <time>2012-05-25T16:55:43Z</time>
      </trkpt>
      <trkpt lat="45.39883" lon="3.76407">
        <ele>662</ele>
        <time>2012-05-25T16:55:46Z</time>
      </trkpt>
      <trkpt lat="45.39877" lon="3.76403">
        <ele>662.20001220703</ele>
        <time>2012-05-25T16:55:49Z</time>
      </trkpt>
      <trkpt lat="45.39873" lon="3.76398">
        <ele>661.5</ele>
        <time>2012-05-25T16:55:51Z</time>
      </trkpt>
      <trkpt lat="45.39869" lon="3.76393">
        <ele>661.09997558594</ele>
        <time>2012-05-25T16:55:53Z</time>
      </trkpt>
      <trkpt lat="45.39864" lon="3.76389">
        <ele>660.79998779297</ele>
        <time>2012-05-25T16:55:55Z</time>
      </trkpt>
      <trkpt lat="45.3986" lon="3.76383">
        <ele>661.59997558594</ele>
        <time>2012-05-25T16:55:57Z</time>
      </trkpt>
      <trkpt lat="45.39855" lon="3.76378">
        <ele>661.70001220703</ele>
        <time>2012-05-25T16:55:59Z</time>
      </trkpt>
      <trkpt lat="45.3985" lon="3.76373">
        <ele>662</ele>
        <time>2012-05-25T16:56:01Z</time>
      </trkpt>
      <trkpt lat="45.39842" lon="3.76365">
        <ele>661</ele>
        <time>2012-05-25T16:56:05Z</time>
      </trkpt>
      <trkpt lat="45.39838" lon="3.7636">
        <ele>660.90002441406</ele>
        <time>2012-05-25T16:56:07Z</time>
      </trkpt>
      <trkpt lat="45.39834" lon="3.76357">
        <ele>661.09997558594</ele>
        <time>2012-05-25T16:56:09Z</time>
      </trkpt>
      <trkpt lat="45.39829" lon="3.76353">
        <ele>659.70001220703</ele>
        <time>2012-05-25T16:56:11Z</time>
      </trkpt>
      <trkpt lat="45.39826" lon="3.76349">
        <ele>660.20001220703</ele>
        <time>2012-05-25T16:56:13Z</time>
      </trkpt>
      <trkpt lat="45.3982" lon="3.76343">
        <ele>662.70001220703</ele>
        <time>2012-05-25T16:56:16Z</time>
      </trkpt>
      <trkpt lat="45.39815" lon="3.76338">
        <ele>664.09997558594</ele>
        <time>2012-05-25T16:56:19Z</time>
      </trkpt>
      <trkpt lat="45.3981" lon="3.76334">
        <ele>665.59997558594</ele>
        <time>2012-05-25T16:56:21Z</time>
      </trkpt>
      <trkpt lat="45.39806" lon="3.76332">
        <ele>665.70001220703</ele>
        <time>2012-05-25T16:56:23Z</time>
      </trkpt>
      <trkpt lat="45.39801" lon="3.76329">
        <ele>666</ele>
        <time>2012-05-25T16:56:25Z</time>
      </trkpt>
      <trkpt lat="45.39797" lon="3.76325">
        <ele>665.59997558594</ele>
        <time>2012-05-25T16:56:27Z</time>
      </trkpt>
      <trkpt lat="45.39792" lon="3.76322">
        <ele>665.79998779297</ele>
        <time>2012-05-25T16:56:30Z</time>
      </trkpt>
      <trkpt lat="45.39787" lon="3.76318">
        <ele>666.09997558594</ele>
        <time>2012-05-25T16:56:33Z</time>
      </trkpt>
      <trkpt lat="45.39782" lon="3.76313">
        <ele>665</ele>
        <time>2012-05-25T16:56:36Z</time>
      </trkpt>
      <trkpt lat="45.39778" lon="3.76309">
        <ele>664</ele>
        <time>2012-05-25T16:56:38Z</time>
      </trkpt>
      <trkpt lat="45.39774" lon="3.76306">
        <ele>663.29998779297</ele>
        <time>2012-05-25T16:56:40Z</time>
      </trkpt>
      <trkpt lat="45.3977" lon="3.76301">
        <ele>663.90002441406</ele>
        <time>2012-05-25T16:56:43Z</time>
      </trkpt>
      <trkpt lat="45.39765" lon="3.76296">
        <ele>663.29998779297</ele>
        <time>2012-05-25T16:56:46Z</time>
      </trkpt>
      <trkpt lat="45.39751" lon="3.76287">
        <ele>663.40002441406</ele>
        <time>2012-05-25T16:56:51Z</time>
      </trkpt>
      <trkpt lat="45.39745" lon="3.76283">
        <ele>663.40002441406</ele>
        <time>2012-05-25T16:56:54Z</time>
      </trkpt>
      <trkpt lat="45.39741" lon="3.76281">
        <ele>663.09997558594</ele>
        <time>2012-05-25T16:56:56Z</time>
      </trkpt>
      <trkpt lat="45.39735" lon="3.76276">
        <ele>661.59997558594</ele>
        <time>2012-05-25T16:56:59Z</time>
      </trkpt>
      <trkpt lat="45.3973" lon="3.76271">
        <ele>661</ele>
        <time>2012-05-25T16:57:02Z</time>
      </trkpt>
      <trkpt lat="45.39725" lon="3.76268">
        <ele>660.90002441406</ele>
        <time>2012-05-25T16:57:05Z</time>
      </trkpt>
      <trkpt lat="45.39719" lon="3.76265">
        <ele>660.29998779297</ele>
        <time>2012-05-25T16:57:08Z</time>
      </trkpt>
      <trkpt lat="45.39713" lon="3.76261">
        <ele>660.40002441406</ele>
        <time>2012-05-25T16:57:11Z</time>
      </trkpt>
      <trkpt lat="45.39708" lon="3.76258">
        <ele>660.5</ele>
        <time>2012-05-25T16:57:14Z</time>
      </trkpt>
      <trkpt lat="45.39703" lon="3.76254">
        <ele>660.09997558594</ele>
        <time>2012-05-25T16:57:17Z</time>
      </trkpt>
      <trkpt lat="45.39697" lon="3.7625">
        <ele>660.59997558594</ele>
        <time>2012-05-25T16:57:20Z</time>
      </trkpt>
      <trkpt lat="45.39691" lon="3.76246">
        <ele>660.79998779297</ele>
        <time>2012-05-25T16:57:23Z</time>
      </trkpt>
      <trkpt lat="45.39686" lon="3.76243">
        <ele>660.70001220703</ele>
        <time>2012-05-25T16:57:26Z</time>
      </trkpt>
      <trkpt lat="45.3968" lon="3.76239">
        <ele>660.90002441406</ele>
        <time>2012-05-25T16:57:29Z</time>
      </trkpt>
      <trkpt lat="45.39675" lon="3.76236">
        <ele>660.59997558594</ele>
        <time>2012-05-25T16:57:31Z</time>
      </trkpt>
      <trkpt lat="45.39671" lon="3.76233">
        <ele>659.90002441406</ele>
        <time>2012-05-25T16:57:33Z</time>
      </trkpt>
      <trkpt lat="45.39665" lon="3.76228">
        <ele>658.90002441406</ele>
        <time>2012-05-25T16:57:36Z</time>
      </trkpt>
      <trkpt lat="45.3966" lon="3.76224">
        <ele>658.59997558594</ele>
        <time>2012-05-25T16:57:39Z</time>
      </trkpt>
      <trkpt lat="45.39655" lon="3.76221">
        <ele>658.09997558594</ele>
        <time>2012-05-25T16:57:42Z</time>
      </trkpt>
      <trkpt lat="45.39649" lon="3.76218">
        <ele>658</ele>
        <time>2012-05-25T16:57:45Z</time>
      </trkpt>
      <trkpt lat="45.39644" lon="3.76215">
        <ele>658.09997558594</ele>
        <time>2012-05-25T16:57:48Z</time>
      </trkpt>
      <trkpt lat="45.39638" lon="3.76212">
        <ele>658.5</ele>
        <time>2012-05-25T16:57:51Z</time>
      </trkpt>
      <trkpt lat="45.39632" lon="3.76209">
        <ele>657.90002441406</ele>
        <time>2012-05-25T16:57:54Z</time>
      </trkpt>
      <trkpt lat="45.39626" lon="3.76206">
        <ele>657.40002441406</ele>
        <time>2012-05-25T16:57:57Z</time>
      </trkpt>
      <trkpt lat="45.39621" lon="3.76203">
        <ele>656.79998779297</ele>
        <time>2012-05-25T16:58:00Z</time>
      </trkpt>
      <trkpt lat="45.39615" lon="3.76199">
        <ele>656.90002441406</ele>
        <time>2012-05-25T16:58:03Z</time>
      </trkpt>
      <trkpt lat="45.3961" lon="3.76194">
        <ele>655.40002441406</ele>
        <time>2012-05-25T16:58:06Z</time>
      </trkpt>
      <trkpt lat="45.39605" lon="3.76191">
        <ele>655.5</ele>
        <time>2012-05-25T16:58:08Z</time>
      </trkpt>
      <trkpt lat="45.396" lon="3.76188">
        <ele>655.70001220703</ele>
        <time>2012-05-25T16:58:11Z</time>
      </trkpt>
      <trkpt lat="45.39595" lon="3.76185">
        <ele>655</ele>
        <time>2012-05-25T16:58:13Z</time>
      </trkpt>
      <trkpt lat="45.3959" lon="3.76181">
        <ele>654.5</ele>
        <time>2012-05-25T16:58:16Z</time>
      </trkpt>
      <trkpt lat="45.39585" lon="3.76176">
        <ele>654.79998779297</ele>
        <time>2012-05-25T16:58:19Z</time>
      </trkpt>
      <trkpt lat="45.3958" lon="3.76172">
        <ele>655.90002441406</ele>
        <time>2012-05-25T16:58:22Z</time>
      </trkpt>
      <trkpt lat="45.39576" lon="3.76169">
        <ele>656.59997558594</ele>
        <time>2012-05-25T16:58:24Z</time>
      </trkpt>
      <trkpt lat="45.39572" lon="3.76165">
        <ele>656.70001220703</ele>
        <time>2012-05-25T16:58:26Z</time>
      </trkpt>
      <trkpt lat="45.39566" lon="3.76162">
        <ele>657</ele>
        <time>2012-05-25T16:58:29Z</time>
      </trkpt>
      <trkpt lat="45.3956" lon="3.76158">
        <ele>658.20001220703</ele>
        <time>2012-05-25T16:58:32Z</time>
      </trkpt>
      <trkpt lat="45.39554" lon="3.76156">
        <ele>658.29998779297</ele>
        <time>2012-05-25T16:58:35Z</time>
      </trkpt>
      <trkpt lat="45.39547" lon="3.76153">
        <ele>658.59997558594</ele>
        <time>2012-05-25T16:58:38Z</time>
      </trkpt>
      <trkpt lat="45.39542" lon="3.76152">
        <ele>658.70001220703</ele>
        <time>2012-05-25T16:58:40Z</time>
      </trkpt>
      <trkpt lat="45.39536" lon="3.76151">
        <ele>659.29998779297</ele>
        <time>2012-05-25T16:58:43Z</time>
      </trkpt>
      <trkpt lat="45.3953" lon="3.7615">
        <ele>659.09997558594</ele>
        <time>2012-05-25T16:58:46Z</time>
      </trkpt>
      <trkpt lat="45.3952" lon="3.76144">
        <ele>659.09997558594</ele>
        <time>2012-05-25T16:58:51Z</time>
      </trkpt>
      <trkpt lat="45.39511" lon="3.76143">
        <ele>657.20001220703</ele>
        <time>2012-05-25T16:58:55Z</time>
      </trkpt>
      <trkpt lat="45.39504" lon="3.76141">
        <ele>656.79998779297</ele>
        <time>2012-05-25T16:58:58Z</time>
      </trkpt>
      <trkpt lat="45.39499" lon="3.76137">
        <ele>656.70001220703</ele>
        <time>2012-05-25T16:59:01Z</time>
      </trkpt>
      <trkpt lat="45.39494" lon="3.76134">
        <ele>659.90002441406</ele>
        <time>2012-05-25T16:59:04Z</time>
      </trkpt>
      <trkpt lat="45.39489" lon="3.76133">
        <ele>660.59997558594</ele>
        <time>2012-05-25T16:59:06Z</time>
      </trkpt>
      <trkpt lat="45.39483" lon="3.76131">
        <ele>660</ele>
        <time>2012-05-25T16:59:09Z</time>
      </trkpt>
      <trkpt lat="45.39479" lon="3.7613">
        <ele>659.90002441406</ele>
        <time>2012-05-25T16:59:11Z</time>
      </trkpt>
      <trkpt lat="45.39474" lon="3.76127">
        <ele>658</ele>
        <time>2012-05-25T16:59:13Z</time>
      </trkpt>
      <trkpt lat="45.39468" lon="3.76125">
        <ele>658.40002441406</ele>
        <time>2012-05-25T16:59:16Z</time>
      </trkpt>
      <trkpt lat="45.39463" lon="3.76121">
        <ele>658.29998779297</ele>
        <time>2012-05-25T16:59:19Z</time>
      </trkpt>
      <trkpt lat="45.39458" lon="3.76119">
        <ele>657.79998779297</ele>
        <time>2012-05-25T16:59:22Z</time>
      </trkpt>
      <trkpt lat="45.39453" lon="3.76115">
        <ele>657.29998779297</ele>
        <time>2012-05-25T16:59:25Z</time>
      </trkpt>
      <trkpt lat="45.39443" lon="3.76111">
        <ele>657</ele>
        <time>2012-05-25T16:59:30Z</time>
      </trkpt>
      <trkpt lat="45.39438" lon="3.76109">
        <ele>657.20001220703</ele>
        <time>2012-05-25T16:59:34Z</time>
      </trkpt>
      <trkpt lat="45.39433" lon="3.76105">
        <ele>658.40002441406</ele>
        <time>2012-05-25T16:59:37Z</time>
      </trkpt>
      <trkpt lat="45.39427" lon="3.76101">
        <ele>659.29998779297</ele>
        <time>2012-05-25T16:59:40Z</time>
      </trkpt>
      <trkpt lat="45.39422" lon="3.76099">
        <ele>660.09997558594</ele>
        <time>2012-05-25T16:59:42Z</time>
      </trkpt>
      <trkpt lat="45.39416" lon="3.76096">
        <ele>661.29998779297</ele>
        <time>2012-05-25T16:59:45Z</time>
      </trkpt>
      <trkpt lat="45.39409" lon="3.76093">
        <ele>660.40002441406</ele>
        <time>2012-05-25T16:59:48Z</time>
      </trkpt>
      <trkpt lat="45.39404" lon="3.76092">
        <ele>659.90002441406</ele>
        <time>2012-05-25T16:59:50Z</time>
      </trkpt>
      <trkpt lat="45.39397" lon="3.76089">
        <ele>660.20001220703</ele>
        <time>2012-05-25T16:59:53Z</time>
      </trkpt>
      <trkpt lat="45.39392" lon="3.76086">
        <ele>659.79998779297</ele>
        <time>2012-05-25T16:59:56Z</time>
      </trkpt>
      <trkpt lat="45.39386" lon="3.76085">
        <ele>659.40002441406</ele>
        <time>2012-05-25T17:00:00Z</time>
      </trkpt>
      <trkpt lat="45.39382" lon="3.76083">
        <ele>659.40002441406</ele>
        <time>2012-05-25T17:00:03Z</time>
      </trkpt>
      <trkpt lat="45.39378" lon="3.7608">
        <ele>659</ele>
        <time>2012-05-25T17:00:06Z</time>
      </trkpt>
      <trkpt lat="45.39372" lon="3.76078">
        <ele>659.09997558594</ele>
        <time>2012-05-25T17:00:10Z</time>
      </trkpt>
      <trkpt lat="45.39368" lon="3.76076">
        <ele>658.59997558594</ele>
        <time>2012-05-25T17:00:13Z</time>
      </trkpt>
      <trkpt lat="45.39363" lon="3.76073">
        <ele>657.70001220703</ele>
        <time>2012-05-25T17:00:17Z</time>
      </trkpt>
      <trkpt lat="45.39358" lon="3.7607">
        <ele>657.40002441406</ele>
        <time>2012-05-25T17:00:21Z</time>
      </trkpt>
      <trkpt lat="45.39353" lon="3.76066">
        <ele>656.09997558594</ele>
        <time>2012-05-25T17:00:25Z</time>
      </trkpt>
      <trkpt lat="45.39347" lon="3.76063">
        <ele>656.29998779297</ele>
        <time>2012-05-25T17:00:29Z</time>
      </trkpt>
      <trkpt lat="45.39341" lon="3.76061">
        <ele>656.79998779297</ele>
        <time>2012-05-25T17:00:32Z</time>
      </trkpt>
      <trkpt lat="45.39335" lon="3.76057">
        <ele>657.29998779297</ele>
        <time>2012-05-25T17:00:35Z</time>
      </trkpt>
      <trkpt lat="45.39331" lon="3.76056">
        <ele>656.90002441406</ele>
        <time>2012-05-25T17:00:37Z</time>
      </trkpt>
      <trkpt lat="45.39325" lon="3.76052">
        <ele>656.09997558594</ele>
        <time>2012-05-25T17:00:40Z</time>
      </trkpt>
      <trkpt lat="45.39319" lon="3.76049">
        <ele>656.59997558594</ele>
        <time>2012-05-25T17:00:43Z</time>
      </trkpt>
      <trkpt lat="45.39313" lon="3.76046">
        <ele>656.79998779297</ele>
        <time>2012-05-25T17:00:46Z</time>
      </trkpt>
      <trkpt lat="45.39308" lon="3.76044">
        <ele>655.70001220703</ele>
        <time>2012-05-25T17:00:49Z</time>
      </trkpt>
      <trkpt lat="45.39303" lon="3.76041">
        <ele>655.79998779297</ele>
        <time>2012-05-25T17:00:52Z</time>
      </trkpt>
      <trkpt lat="45.39297" lon="3.76038">
        <ele>656.79998779297</ele>
        <time>2012-05-25T17:00:55Z</time>
      </trkpt>
      <trkpt lat="45.39292" lon="3.76037">
        <ele>656.79998779297</ele>
        <time>2012-05-25T17:00:57Z</time>
      </trkpt>
      <trkpt lat="45.39287" lon="3.76036">
        <ele>657</ele>
        <time>2012-05-25T17:01:00Z</time>
      </trkpt>
      <trkpt lat="45.39281" lon="3.76033">
        <ele>657</ele>
        <time>2012-05-25T17:01:03Z</time>
      </trkpt>
      <trkpt lat="45.39276" lon="3.76032">
        <ele>656.90002441406</ele>
        <time>2012-05-25T17:01:05Z</time>
      </trkpt>
      <trkpt lat="45.3927" lon="3.76031">
        <ele>656.59997558594</ele>
        <time>2012-05-25T17:01:08Z</time>
      </trkpt>
      <trkpt lat="45.39265" lon="3.76031">
        <ele>656.5</ele>
        <time>2012-05-25T17:01:10Z</time>
      </trkpt>
      <trkpt lat="45.39258" lon="3.76028">
        <ele>656.40002441406</ele>
        <time>2012-05-25T17:01:13Z</time>
      </trkpt>
      <trkpt lat="45.39253" lon="3.76027">
        <ele>656.5</ele>
        <time>2012-05-25T17:01:15Z</time>
      </trkpt>
      <trkpt lat="45.39247" lon="3.76026">
        <ele>656.90002441406</ele>
        <time>2012-05-25T17:01:18Z</time>
      </trkpt>
      <trkpt lat="45.39241" lon="3.76026">
        <ele>657.5</ele>
        <time>2012-05-25T17:01:21Z</time>
      </trkpt>
      <trkpt lat="45.39235" lon="3.76024">
        <ele>656.79998779297</ele>
        <time>2012-05-25T17:01:24Z</time>
      </trkpt>
      <trkpt lat="45.3923" lon="3.76024">
        <ele>657</ele>
        <time>2012-05-25T17:01:26Z</time>
      </trkpt>
      <trkpt lat="45.39225" lon="3.76022">
        <ele>657.79998779297</ele>
        <time>2012-05-25T17:01:28Z</time>
      </trkpt>
      <trkpt lat="45.3922" lon="3.76022">
        <ele>657.90002441406</ele>
        <time>2012-05-25T17:01:30Z</time>
      </trkpt>
      <trkpt lat="45.39214" lon="3.76021">
        <ele>658.5</ele>
        <time>2012-05-25T17:01:33Z</time>
      </trkpt>
      <trkpt lat="45.39209" lon="3.76021">
        <ele>658.20001220703</ele>
        <time>2012-05-25T17:01:36Z</time>
      </trkpt>
      <trkpt lat="45.39205" lon="3.76019">
        <ele>658.5</ele>
        <time>2012-05-25T17:01:38Z</time>
      </trkpt>
      <trkpt lat="45.39199" lon="3.76017">
        <ele>658.20001220703</ele>
        <time>2012-05-25T17:01:41Z</time>
      </trkpt>
      <trkpt lat="45.3919" lon="3.76015">
        <ele>660.09997558594</ele>
        <time>2012-05-25T17:01:45Z</time>
      </trkpt>
      <trkpt lat="45.3918" lon="3.76011">
        <ele>661.70001220703</ele>
        <time>2012-05-25T17:01:50Z</time>
      </trkpt>
      <trkpt lat="45.39175" lon="3.76008">
        <ele>661.79998779297</ele>
        <time>2012-05-25T17:01:53Z</time>
      </trkpt>
      <trkpt lat="45.39169" lon="3.76005">
        <ele>661.70001220703</ele>
        <time>2012-05-25T17:01:56Z</time>
      </trkpt>
      <trkpt lat="45.39163" lon="3.76002">
        <ele>660.20001220703</ele>
        <time>2012-05-25T17:01:59Z</time>
      </trkpt>
      <trkpt lat="45.39158" lon="3.76">
        <ele>660.09997558594</ele>
        <time>2012-05-25T17:02:01Z</time>
      </trkpt>
      <trkpt lat="45.39152" lon="3.75997">
        <ele>659.09997558594</ele>
        <time>2012-05-25T17:02:04Z</time>
      </trkpt>
      <trkpt lat="45.39147" lon="3.75995">
        <ele>659</ele>
        <time>2012-05-25T17:02:06Z</time>
      </trkpt>
      <trkpt lat="45.39141" lon="3.75993">
        <ele>658.5</ele>
        <time>2012-05-25T17:02:09Z</time>
      </trkpt>
      <trkpt lat="45.39134" lon="3.75991">
        <ele>656.79998779297</ele>
        <time>2012-05-25T17:02:12Z</time>
      </trkpt>
      <trkpt lat="45.3913" lon="3.75989">
        <ele>656.5</ele>
        <time>2012-05-25T17:02:14Z</time>
      </trkpt>
      <trkpt lat="45.39125" lon="3.75987">
        <ele>656.70001220703</ele>
        <time>2012-05-25T17:02:16Z</time>
      </trkpt>
      <trkpt lat="45.39121" lon="3.75985">
        <ele>656.29998779297</ele>
        <time>2012-05-25T17:02:18Z</time>
      </trkpt>
      <trkpt lat="45.39114" lon="3.75981">
        <ele>656.09997558594</ele>
        <time>2012-05-25T17:02:21Z</time>
      </trkpt>
      <trkpt lat="45.39105" lon="3.75977">
        <ele>653.90002441406</ele>
        <time>2012-05-25T17:02:26Z</time>
      </trkpt>
      <trkpt lat="45.39098" lon="3.75975">
        <ele>655.40002441406</ele>
        <time>2012-05-25T17:02:29Z</time>
      </trkpt>
      <trkpt lat="45.39093" lon="3.75974">
        <ele>655.09997558594</ele>
        <time>2012-05-25T17:02:32Z</time>
      </trkpt>
      <trkpt lat="45.39087" lon="3.75971">
        <ele>655.29998779297</ele>
        <time>2012-05-25T17:02:35Z</time>
      </trkpt>
      <trkpt lat="45.39083" lon="3.75969">
        <ele>655.5</ele>
        <time>2012-05-25T17:02:37Z</time>
      </trkpt>
      <trkpt lat="45.39077" lon="3.75967">
        <ele>655.70001220703</ele>
        <time>2012-05-25T17:02:40Z</time>
      </trkpt>
      <trkpt lat="45.39073" lon="3.75966">
        <ele>655.70001220703</ele>
        <time>2012-05-25T17:02:42Z</time>
      </trkpt>
      <trkpt lat="45.39067" lon="3.75962">
        <ele>655.59997558594</ele>
        <time>2012-05-25T17:02:45Z</time>
      </trkpt>
      <trkpt lat="45.39061" lon="3.75959">
        <ele>655.70001220703</ele>
        <time>2012-05-25T17:02:48Z</time>
      </trkpt>
      <trkpt lat="45.39056" lon="3.75957">
        <ele>655.5</ele>
        <time>2012-05-25T17:02:51Z</time>
      </trkpt>
      <trkpt lat="45.39051" lon="3.75955">
        <ele>655.09997558594</ele>
        <time>2012-05-25T17:02:53Z</time>
      </trkpt>
      <trkpt lat="45.39044" lon="3.75953">
        <ele>655.90002441406</ele>
        <time>2012-05-25T17:02:57Z</time>
      </trkpt>
      <trkpt lat="45.39038" lon="3.75949">
        <ele>656.90002441406</ele>
        <time>2012-05-25T17:03:00Z</time>
      </trkpt>
      <trkpt lat="45.39034" lon="3.75947">
        <ele>657</ele>
        <time>2012-05-25T17:03:02Z</time>
      </trkpt>
      <trkpt lat="45.39028" lon="3.75946">
        <ele>657.09997558594</ele>
        <time>2012-05-25T17:03:05Z</time>
      </trkpt>
      <trkpt lat="45.39023" lon="3.75943">
        <ele>657.40002441406</ele>
        <time>2012-05-25T17:03:08Z</time>
      </trkpt>
      <trkpt lat="45.39017" lon="3.75942">
        <ele>657.59997558594</ele>
        <time>2012-05-25T17:03:11Z</time>
      </trkpt>
      <trkpt lat="45.39012" lon="3.7594">
        <ele>657.20001220703</ele>
        <time>2012-05-25T17:03:14Z</time>
      </trkpt>
      <trkpt lat="45.39006" lon="3.75938">
        <ele>656.90002441406</ele>
        <time>2012-05-25T17:03:17Z</time>
      </trkpt>
      <trkpt lat="45.39" lon="3.75937">
        <ele>657.70001220703</ele>
        <time>2012-05-25T17:03:20Z</time>
      </trkpt>
      <trkpt lat="45.38995" lon="3.75935">
        <ele>657.79998779297</ele>
        <time>2012-05-25T17:03:24Z</time>
      </trkpt>
      <trkpt lat="45.38989" lon="3.75933">
        <ele>657.40002441406</ele>
        <time>2012-05-25T17:03:29Z</time>
      </trkpt>
      <trkpt lat="45.38983" lon="3.7593">
        <ele>657.20001220703</ele>
        <time>2012-05-25T17:03:32Z</time>
      </trkpt>
      <trkpt lat="45.38979" lon="3.75927">
        <ele>658.40002441406</ele>
        <time>2012-05-25T17:03:35Z</time>
      </trkpt>
      <trkpt lat="45.38974" lon="3.75925">
        <ele>658.59997558594</ele>
        <time>2012-05-25T17:03:38Z</time>
      </trkpt>
      <trkpt lat="45.38968" lon="3.75923">
        <ele>658.90002441406</ele>
        <time>2012-05-25T17:03:42Z</time>
      </trkpt>
      <trkpt lat="45.38963" lon="3.75921">
        <ele>659</ele>
        <time>2012-05-25T17:03:46Z</time>
      </trkpt>
      <trkpt lat="45.38958" lon="3.7592">
        <ele>659.40002441406</ele>
        <time>2012-05-25T17:03:49Z</time>
      </trkpt>
      <trkpt lat="45.38954" lon="3.75918">
        <ele>658.70001220703</ele>
        <time>2012-05-25T17:03:52Z</time>
      </trkpt>
      <trkpt lat="45.38948" lon="3.75918">
        <ele>658.90002441406</ele>
        <time>2012-05-25T17:03:56Z</time>
      </trkpt>
      <trkpt lat="45.38943" lon="3.75918">
        <ele>659</ele>
        <time>2012-05-25T17:04:00Z</time>
      </trkpt>
      <trkpt lat="45.38938" lon="3.75917">
        <ele>659.5</ele>
        <time>2012-05-25T17:04:04Z</time>
      </trkpt>
      <trkpt lat="45.38932" lon="3.75917">
        <ele>659.70001220703</ele>
        <time>2012-05-25T17:04:08Z</time>
      </trkpt>
      <trkpt lat="45.38927" lon="3.75918">
        <ele>660.20001220703</ele>
        <time>2012-05-25T17:04:12Z</time>
      </trkpt>
      <trkpt lat="45.38922" lon="3.75918">
        <ele>660.29998779297</ele>
        <time>2012-05-25T17:04:16Z</time>
      </trkpt>
      <trkpt lat="45.38917" lon="3.75919">
        <ele>660.90002441406</ele>
        <time>2012-05-25T17:04:20Z</time>
      </trkpt>
      <trkpt lat="45.38912" lon="3.75919">
        <ele>661.09997558594</ele>
        <time>2012-05-25T17:04:23Z</time>
      </trkpt>
      <trkpt lat="45.38908" lon="3.75918">
        <ele>660.5</ele>
        <time>2012-05-25T17:04:26Z</time>
      </trkpt>
      <trkpt lat="45.38902" lon="3.75918">
        <ele>661.5</ele>
        <time>2012-05-25T17:04:30Z</time>
      </trkpt>
      <trkpt lat="45.38897" lon="3.75918">
        <ele>662</ele>
        <time>2012-05-25T17:04:33Z</time>
      </trkpt>
      <trkpt lat="45.38892" lon="3.75919">
        <ele>662.79998779297</ele>
        <time>2012-05-25T17:04:36Z</time>
      </trkpt>
      <trkpt lat="45.38886" lon="3.75919">
        <ele>663.40002441406</ele>
        <time>2012-05-25T17:04:40Z</time>
      </trkpt>
      <trkpt lat="45.38882" lon="3.75919">
        <ele>663.09997558594</ele>
        <time>2012-05-25T17:04:43Z</time>
      </trkpt>
      <trkpt lat="45.38876" lon="3.75918">
        <ele>663.40002441406</ele>
        <time>2012-05-25T17:04:47Z</time>
      </trkpt>
      <trkpt lat="45.38871" lon="3.75918">
        <ele>662.59997558594</ele>
        <time>2012-05-25T17:04:51Z</time>
      </trkpt>
      <trkpt lat="45.38866" lon="3.75918">
        <ele>663.79998779297</ele>
        <time>2012-05-25T17:04:54Z</time>
      </trkpt>
      <trkpt lat="45.38861" lon="3.75917">
        <ele>664</ele>
        <time>2012-05-25T17:04:57Z</time>
      </trkpt>
      <trkpt lat="45.38846" lon="3.75917">
        <ele>665.5</ele>
        <time>2012-05-25T17:05:04Z</time>
      </trkpt>
      <trkpt lat="45.38841" lon="3.75917">
        <ele>667</ele>
        <time>2012-05-25T17:05:06Z</time>
      </trkpt>
      <trkpt lat="45.38835" lon="3.75916">
        <ele>663.79998779297</ele>
        <time>2012-05-25T17:05:09Z</time>
      </trkpt>
      <trkpt lat="45.38827" lon="3.75915">
        <ele>662.70001220703</ele>
        <time>2012-05-25T17:05:12Z</time>
      </trkpt>
      <trkpt lat="45.38823" lon="3.75914">
        <ele>662.79998779297</ele>
        <time>2012-05-25T17:05:15Z</time>
      </trkpt>
      <trkpt lat="45.38816" lon="3.75915">
        <ele>664.5</ele>
        <time>2012-05-25T17:05:18Z</time>
      </trkpt>
      <trkpt lat="45.3881" lon="3.75914">
        <ele>664.5</ele>
        <time>2012-05-25T17:05:21Z</time>
      </trkpt>
      <trkpt lat="45.38805" lon="3.75913">
        <ele>664.70001220703</ele>
        <time>2012-05-25T17:05:24Z</time>
      </trkpt>
      <trkpt lat="45.38799" lon="3.7591">
        <ele>665.09997558594</ele>
        <time>2012-05-25T17:05:27Z</time>
      </trkpt>
      <trkpt lat="45.38792" lon="3.75907">
        <ele>664.79998779297</ele>
        <time>2012-05-25T17:05:30Z</time>
      </trkpt>
      <trkpt lat="45.38786" lon="3.75906">
        <ele>666.29998779297</ele>
        <time>2012-05-25T17:05:33Z</time>
      </trkpt>
      <trkpt lat="45.38777" lon="3.75904">
        <ele>666.5</ele>
        <time>2012-05-25T17:05:37Z</time>
      </trkpt>
      <trkpt lat="45.38771" lon="3.75899">
        <ele>665.29998779297</ele>
        <time>2012-05-25T17:05:40Z</time>
      </trkpt>
      <trkpt lat="45.38766" lon="3.75896">
        <ele>666.29998779297</ele>
        <time>2012-05-25T17:05:43Z</time>
      </trkpt>
      <trkpt lat="45.38762" lon="3.75891">
        <ele>665.79998779297</ele>
        <time>2012-05-25T17:05:46Z</time>
      </trkpt>
      <trkpt lat="45.38759" lon="3.75885">
        <ele>667.59997558594</ele>
        <time>2012-05-25T17:05:49Z</time>
      </trkpt>
      <trkpt lat="45.38754" lon="3.75881">
        <ele>664.79998779297</ele>
        <time>2012-05-25T17:05:52Z</time>
      </trkpt>
      <trkpt lat="45.38747" lon="3.75874">
        <ele>665.90002441406</ele>
        <time>2012-05-25T17:05:56Z</time>
      </trkpt>
      <trkpt lat="45.38743" lon="3.7587">
        <ele>666.79998779297</ele>
        <time>2012-05-25T17:05:58Z</time>
      </trkpt>
      <trkpt lat="45.38739" lon="3.75866">
        <ele>667.20001220703</ele>
        <time>2012-05-25T17:06:00Z</time>
      </trkpt>
      <trkpt lat="45.38736" lon="3.75863">
        <ele>667.09997558594</ele>
        <time>2012-05-25T17:06:02Z</time>
      </trkpt>
      <trkpt lat="45.38732" lon="3.75859">
        <ele>668</ele>
        <time>2012-05-25T17:06:04Z</time>
      </trkpt>
      <trkpt lat="45.38728" lon="3.75854">
        <ele>668</ele>
        <time>2012-05-25T17:06:06Z</time>
      </trkpt>
      <trkpt lat="45.38723" lon="3.75849">
        <ele>667.40002441406</ele>
        <time>2012-05-25T17:06:09Z</time>
      </trkpt>
      <trkpt lat="45.38719" lon="3.75842">
        <ele>666.40002441406</ele>
        <time>2012-05-25T17:06:12Z</time>
      </trkpt>
      <trkpt lat="45.38714" lon="3.75835">
        <ele>665.70001220703</ele>
        <time>2012-05-25T17:06:15Z</time>
      </trkpt>
      <trkpt lat="45.38711" lon="3.7583">
        <ele>665.70001220703</ele>
        <time>2012-05-25T17:06:17Z</time>
      </trkpt>
      <trkpt lat="45.38706" lon="3.75824">
        <ele>666.09997558594</ele>
        <time>2012-05-25T17:06:20Z</time>
      </trkpt>
      <trkpt lat="45.38702" lon="3.75817">
        <ele>666.09997558594</ele>
        <time>2012-05-25T17:06:23Z</time>
      </trkpt>
      <trkpt lat="45.38698" lon="3.7581">
        <ele>665.5</ele>
        <time>2012-05-25T17:06:26Z</time>
      </trkpt>
      <trkpt lat="45.38693" lon="3.75804">
        <ele>665.09997558594</ele>
        <time>2012-05-25T17:06:29Z</time>
      </trkpt>
      <trkpt lat="45.38689" lon="3.75799">
        <ele>664.20001220703</ele>
        <time>2012-05-25T17:06:32Z</time>
      </trkpt>
      <trkpt lat="45.38684" lon="3.75793">
        <ele>663.70001220703</ele>
        <time>2012-05-25T17:06:35Z</time>
      </trkpt>
      <trkpt lat="45.3868" lon="3.75787">
        <ele>664.90002441406</ele>
        <time>2012-05-25T17:06:38Z</time>
      </trkpt>
      <trkpt lat="45.38675" lon="3.7578">
        <ele>663.79998779297</ele>
        <time>2012-05-25T17:06:41Z</time>
      </trkpt>
      <trkpt lat="45.38671" lon="3.75775">
        <ele>663.90002441406</ele>
        <time>2012-05-25T17:06:44Z</time>
      </trkpt>
      <trkpt lat="45.38665" lon="3.75769">
        <ele>664</ele>
        <time>2012-05-25T17:06:47Z</time>
      </trkpt>
      <trkpt lat="45.38661" lon="3.75762">
        <ele>663.40002441406</ele>
        <time>2012-05-25T17:06:50Z</time>
      </trkpt>
      <trkpt lat="45.38656" lon="3.75756">
        <ele>663.40002441406</ele>
        <time>2012-05-25T17:06:53Z</time>
      </trkpt>
      <trkpt lat="45.38651" lon="3.75751">
        <ele>663.70001220703</ele>
        <time>2012-05-25T17:06:56Z</time>
      </trkpt>
      <trkpt lat="45.38646" lon="3.75746">
        <ele>663.5</ele>
        <time>2012-05-25T17:06:59Z</time>
      </trkpt>
      <trkpt lat="45.38642" lon="3.7574">
        <ele>662.70001220703</ele>
        <time>2012-05-25T17:07:02Z</time>
      </trkpt>
      <trkpt lat="45.38638" lon="3.75735">
        <ele>661.59997558594</ele>
        <time>2012-05-25T17:07:05Z</time>
      </trkpt>
      <trkpt lat="45.38634" lon="3.7573">
        <ele>662.09997558594</ele>
        <time>2012-05-25T17:07:08Z</time>
      </trkpt>
      <trkpt lat="45.3863" lon="3.75726">
        <ele>662.09997558594</ele>
        <time>2012-05-25T17:07:10Z</time>
      </trkpt>
      <trkpt lat="45.38625" lon="3.75722">
        <ele>660.70001220703</ele>
        <time>2012-05-25T17:07:13Z</time>
      </trkpt>
      <trkpt lat="45.38621" lon="3.75717">
        <ele>660.29998779297</ele>
        <time>2012-05-25T17:07:16Z</time>
      </trkpt>
      <trkpt lat="45.38617" lon="3.75712">
        <ele>660.29998779297</ele>
        <time>2012-05-25T17:07:18Z</time>
      </trkpt>
      <trkpt lat="45.3861" lon="3.75704">
        <ele>656.70001220703</ele>
        <time>2012-05-25T17:07:22Z</time>
      </trkpt>
      <trkpt lat="45.38606" lon="3.75699">
        <ele>656.5</ele>
        <time>2012-05-25T17:07:25Z</time>
      </trkpt>
      <trkpt lat="45.38601" lon="3.75692">
        <ele>656.59997558594</ele>
        <time>2012-05-25T17:07:28Z</time>
      </trkpt>
      <trkpt lat="45.38587" lon="3.75679">
        <ele>655.90002441406</ele>
        <time>2012-05-25T17:07:35Z</time>
      </trkpt>
      <trkpt lat="45.38582" lon="3.75677">
        <ele>656.40002441406</ele>
        <time>2012-05-25T17:07:37Z</time>
      </trkpt>
      <trkpt lat="45.38576" lon="3.75674">
        <ele>657.5</ele>
        <time>2012-05-25T17:07:40Z</time>
      </trkpt>
      <trkpt lat="45.38572" lon="3.75672">
        <ele>657.09997558594</ele>
        <time>2012-05-25T17:07:42Z</time>
      </trkpt>
      <trkpt lat="45.38566" lon="3.75673">
        <ele>656.79998779297</ele>
        <time>2012-05-25T17:07:45Z</time>
      </trkpt>
      <trkpt lat="45.38556" lon="3.75671">
        <ele>655.79998779297</ele>
        <time>2012-05-25T17:07:51Z</time>
      </trkpt>
      <trkpt lat="45.3855" lon="3.75671">
        <ele>656.90002441406</ele>
        <time>2012-05-25T17:07:54Z</time>
      </trkpt>
      <trkpt lat="45.38543" lon="3.75671">
        <ele>656.5</ele>
        <time>2012-05-25T17:07:58Z</time>
      </trkpt>
      <trkpt lat="45.38537" lon="3.75671">
        <ele>657.70001220703</ele>
        <time>2012-05-25T17:08:00Z</time>
      </trkpt>
      <trkpt lat="45.38532" lon="3.75674">
        <ele>656.5</ele>
        <time>2012-05-25T17:08:02Z</time>
      </trkpt>
      <trkpt lat="45.38527" lon="3.75675">
        <ele>654.79998779297</ele>
        <time>2012-05-25T17:08:04Z</time>
      </trkpt>
      <trkpt lat="45.38522" lon="3.7567">
        <ele>654.79998779297</ele>
        <time>2012-05-25T17:08:07Z</time>
      </trkpt>
      <trkpt lat="45.38517" lon="3.75665">
        <ele>653.70001220703</ele>
        <time>2012-05-25T17:08:09Z</time>
      </trkpt>
      <trkpt lat="45.38513" lon="3.75657">
        <ele>655.20001220703</ele>
        <time>2012-05-25T17:08:12Z</time>
      </trkpt>
      <trkpt lat="45.38512" lon="3.7565">
        <ele>655.20001220703</ele>
        <time>2012-05-25T17:08:14Z</time>
      </trkpt>
      <trkpt lat="45.3851" lon="3.75644">
        <ele>655.20001220703</ele>
        <time>2012-05-25T17:08:16Z</time>
      </trkpt>
      <trkpt lat="45.3851" lon="3.75637">
        <ele>655.09997558594</ele>
        <time>2012-05-25T17:08:18Z</time>
      </trkpt>
      <trkpt lat="45.38509" lon="3.75631">
        <ele>655.90002441406</ele>
        <time>2012-05-25T17:08:20Z</time>
      </trkpt>
      <trkpt lat="45.38508" lon="3.75622">
        <ele>655.5</ele>
        <time>2012-05-25T17:08:23Z</time>
      </trkpt>
      <trkpt lat="45.38508" lon="3.75616">
        <ele>655.29998779297</ele>
        <time>2012-05-25T17:08:25Z</time>
      </trkpt>
      <trkpt lat="45.38507" lon="3.75608">
        <ele>655</ele>
        <time>2012-05-25T17:08:28Z</time>
      </trkpt>
      <trkpt lat="45.38504" lon="3.75581">
        <ele>654.09997558594</ele>
        <time>2012-05-25T17:08:37Z</time>
      </trkpt>
      <trkpt lat="45.38503" lon="3.75572">
        <ele>654.59997558594</ele>
        <time>2012-05-25T17:08:40Z</time>
      </trkpt>
      <trkpt lat="45.38501" lon="3.75566">
        <ele>655.59997558594</ele>
        <time>2012-05-25T17:08:42Z</time>
      </trkpt>
      <trkpt lat="45.385" lon="3.75559">
        <ele>655.5</ele>
        <time>2012-05-25T17:08:45Z</time>
      </trkpt>
      <trkpt lat="45.38498" lon="3.75551">
        <ele>655.5</ele>
        <time>2012-05-25T17:08:48Z</time>
      </trkpt>
      <trkpt lat="45.38495" lon="3.7554">
        <ele>656.09997558594</ele>
        <time>2012-05-25T17:08:53Z</time>
      </trkpt>
      <trkpt lat="45.38493" lon="3.75532">
        <ele>655.5</ele>
        <time>2012-05-25T17:08:56Z</time>
      </trkpt>
      <trkpt lat="45.38491" lon="3.75524">
        <ele>654.20001220703</ele>
        <time>2012-05-25T17:08:59Z</time>
      </trkpt>
      <trkpt lat="45.38486" lon="3.75514">
        <ele>655</ele>
        <time>2012-05-25T17:09:03Z</time>
      </trkpt>
      <trkpt lat="45.38485" lon="3.75507">
        <ele>653.79998779297</ele>
        <time>2012-05-25T17:09:05Z</time>
      </trkpt>
      <trkpt lat="45.38483" lon="3.75496">
        <ele>652.59997558594</ele>
        <time>2012-05-25T17:09:09Z</time>
      </trkpt>
      <trkpt lat="45.3848" lon="3.75489">
        <ele>651.59997558594</ele>
        <time>2012-05-25T17:09:12Z</time>
      </trkpt>
      <trkpt lat="45.38479" lon="3.75482">
        <ele>651.70001220703</ele>
        <time>2012-05-25T17:09:14Z</time>
      </trkpt>
      <trkpt lat="45.38476" lon="3.75474">
        <ele>651.40002441406</ele>
        <time>2012-05-25T17:09:17Z</time>
      </trkpt>
      <trkpt lat="45.38473" lon="3.75468">
        <ele>651.90002441406</ele>
        <time>2012-05-25T17:09:20Z</time>
      </trkpt>
      <trkpt lat="45.38471" lon="3.75461">
        <ele>651.70001220703</ele>
        <time>2012-05-25T17:09:23Z</time>
      </trkpt>
      <trkpt lat="45.38469" lon="3.75453">
        <ele>651.20001220703</ele>
        <time>2012-05-25T17:09:26Z</time>
      </trkpt>
      <trkpt lat="45.38466" lon="3.75445">
        <ele>652</ele>
        <time>2012-05-25T17:09:29Z</time>
      </trkpt>
      <trkpt lat="45.38464" lon="3.75439">
        <ele>652.20001220703</ele>
        <time>2012-05-25T17:09:31Z</time>
      </trkpt>
      <trkpt lat="45.38462" lon="3.75432">
        <ele>651.79998779297</ele>
        <time>2012-05-25T17:09:34Z</time>
      </trkpt>
      <trkpt lat="45.38457" lon="3.75415">
        <ele>652.79998779297</ele>
        <time>2012-05-25T17:09:40Z</time>
      </trkpt>
      <trkpt lat="45.38455" lon="3.75409">
        <ele>653.29998779297</ele>
        <time>2012-05-25T17:09:42Z</time>
      </trkpt>
      <trkpt lat="45.38454" lon="3.75401">
        <ele>653.5</ele>
        <time>2012-05-25T17:09:44Z</time>
      </trkpt>
      <trkpt lat="45.38452" lon="3.75394">
        <ele>652.20001220703</ele>
        <time>2012-05-25T17:09:47Z</time>
      </trkpt>
      <trkpt lat="45.38451" lon="3.75387">
        <ele>651.40002441406</ele>
        <time>2012-05-25T17:09:49Z</time>
      </trkpt>
      <trkpt lat="45.38449" lon="3.75381">
        <ele>652.20001220703</ele>
        <time>2012-05-25T17:09:51Z</time>
      </trkpt>
      <trkpt lat="45.38447" lon="3.75374">
        <ele>653.29998779297</ele>
        <time>2012-05-25T17:09:53Z</time>
      </trkpt>
      <trkpt lat="45.38445" lon="3.75365">
        <ele>652.79998779297</ele>
        <time>2012-05-25T17:09:56Z</time>
      </trkpt>
      <trkpt lat="45.38443" lon="3.75359">
        <ele>652.59997558594</ele>
        <time>2012-05-25T17:09:58Z</time>
      </trkpt>
      <trkpt lat="45.38441" lon="3.75352">
        <ele>652.79998779297</ele>
        <time>2012-05-25T17:10:00Z</time>
      </trkpt>
      <trkpt lat="45.38439" lon="3.75346">
        <ele>653.70001220703</ele>
        <time>2012-05-25T17:10:02Z</time>
      </trkpt>
      <trkpt lat="45.38436" lon="3.7534">
        <ele>653.5</ele>
        <time>2012-05-25T17:10:04Z</time>
      </trkpt>
      <trkpt lat="45.38434" lon="3.75333">
        <ele>654</ele>
        <time>2012-05-25T17:10:06Z</time>
      </trkpt>
      <trkpt lat="45.38432" lon="3.75326">
        <ele>654.5</ele>
        <time>2012-05-25T17:10:08Z</time>
      </trkpt>
      <trkpt lat="45.3843" lon="3.75319">
        <ele>655</ele>
        <time>2012-05-25T17:10:10Z</time>
      </trkpt>
      <trkpt lat="45.38427" lon="3.75314">
        <ele>655.40002441406</ele>
        <time>2012-05-25T17:10:12Z</time>
      </trkpt>
      <trkpt lat="45.38426" lon="3.75308">
        <ele>655.90002441406</ele>
        <time>2012-05-25T17:10:14Z</time>
      </trkpt>
      <trkpt lat="45.38424" lon="3.75301">
        <ele>655.90002441406</ele>
        <time>2012-05-25T17:10:16Z</time>
      </trkpt>
      <trkpt lat="45.38422" lon="3.75292">
        <ele>656.70001220703</ele>
        <time>2012-05-25T17:10:19Z</time>
      </trkpt>
      <trkpt lat="45.38417" lon="3.75274">
        <ele>658.79998779297</ele>
        <time>2012-05-25T17:10:25Z</time>
      </trkpt>
      <trkpt lat="45.38414" lon="3.75266">
        <ele>659.79998779297</ele>
        <time>2012-05-25T17:10:28Z</time>
      </trkpt>
      <trkpt lat="45.38413" lon="3.75259">
        <ele>659.79998779297</ele>
        <time>2012-05-25T17:10:30Z</time>
      </trkpt>
      <trkpt lat="45.38411" lon="3.75247">
        <ele>657.40002441406</ele>
        <time>2012-05-25T17:10:34Z</time>
      </trkpt>
      <trkpt lat="45.38409" lon="3.75239">
        <ele>657.20001220703</ele>
        <time>2012-05-25T17:10:37Z</time>
      </trkpt>
      <trkpt lat="45.38406" lon="3.7523">
        <ele>658.90002441406</ele>
        <time>2012-05-25T17:10:40Z</time>
      </trkpt>
      <trkpt lat="45.38404" lon="3.75224">
        <ele>658.70001220703</ele>
        <time>2012-05-25T17:10:42Z</time>
      </trkpt>
      <trkpt lat="45.38401" lon="3.75219">
        <ele>658.79998779297</ele>
        <time>2012-05-25T17:10:44Z</time>
      </trkpt>
      <trkpt lat="45.38398" lon="3.7521">
        <ele>659</ele>
        <time>2012-05-25T17:10:47Z</time>
      </trkpt>
      <trkpt lat="45.38397" lon="3.75202">
        <ele>659.29998779297</ele>
        <time>2012-05-25T17:10:49Z</time>
      </trkpt>
      <trkpt lat="45.38395" lon="3.75196">
        <ele>659.20001220703</ele>
        <time>2012-05-25T17:10:51Z</time>
      </trkpt>
      <trkpt lat="45.38393" lon="3.75189">
        <ele>659.59997558594</ele>
        <time>2012-05-25T17:10:53Z</time>
      </trkpt>
      <trkpt lat="45.38391" lon="3.75182">
        <ele>659.70001220703</ele>
        <time>2012-05-25T17:10:55Z</time>
      </trkpt>
      <trkpt lat="45.38389" lon="3.75173">
        <ele>660.09997558594</ele>
        <time>2012-05-25T17:10:58Z</time>
      </trkpt>
      <trkpt lat="45.38387" lon="3.75167">
        <ele>659.5</ele>
        <time>2012-05-25T17:11:00Z</time>
      </trkpt>
    </trkseg>
  </trk>
</gpx>